<?xml version="1.0" encoding="UTF-8" standalone="no" ?>
<gpx xmlns="http://www.topografix.com/GPX/1/1" xmlns:xsi="http://www.w3.org/2001/XMLSchema-instance" xsi:schemaLocation="http://www.topografix.com/GPX/1/1 http://www.topografix.com/GPX/1/1/gpx.xsd" version="1.1" creator="VisuGPX - https://www.visugpx.com">
  <metadata>
    <name>Flaine  Col du Colonney retour par Mephisto 8km 844m</name>
    <desc><![CDATA[Itinéraire ski de rando Flaine]]></desc>
  </metadata>
  <trk>
    <name><![CDATA[Flaine  Col du Colonney retour par Mephisto 8km 844m]]></name>
    <desc><![CDATA[Itinéraire ski de rando Flaine]]></desc>
    <trkseg>
      <trkpt lat="46.00293" lon="6.69102">
        <ele>1581.2998</ele>
        <time>2020-02-07T09:10:57Z</time>
      </trkpt>
      <trkpt lat="46.00293" lon="6.69101">
        <ele>1581.2998</ele>
        <time>2020-02-07T09:10:59Z</time>
      </trkpt>
      <trkpt lat="46.00296" lon="6.69103">
        <ele>1581.2998</ele>
        <time>2020-02-07T09:11:02Z</time>
      </trkpt>
      <trkpt lat="46.00299" lon="6.69093">
        <ele>1580.5</ele>
        <time>2020-02-07T09:11:11Z</time>
      </trkpt>
      <trkpt lat="46.00301" lon="6.69092">
        <ele>1580.5</ele>
        <time>2020-02-07T09:11:13Z</time>
      </trkpt>
      <trkpt lat="46.00305" lon="6.69088">
        <ele>1580</ele>
        <time>2020-02-07T09:11:19Z</time>
      </trkpt>
      <trkpt lat="46.0031" lon="6.69087">
        <ele>1580</ele>
        <time>2020-02-07T09:11:23Z</time>
      </trkpt>
      <trkpt lat="46.00315" lon="6.69082">
        <ele>1579.2998</ele>
        <time>2020-02-07T09:11:27Z</time>
      </trkpt>
      <trkpt lat="46.00316" lon="6.69079">
        <ele>1579.2998</ele>
        <time>2020-02-07T09:11:29Z</time>
      </trkpt>
      <trkpt lat="46.00316" lon="6.69081">
        <ele>1578.9004</ele>
        <time>2020-02-07T09:11:31Z</time>
      </trkpt>
      <trkpt lat="46.0032" lon="6.69078">
        <ele>1578.9004</ele>
        <time>2020-02-07T09:11:35Z</time>
      </trkpt>
      <trkpt lat="46.00316" lon="6.69065">
        <ele>1578.2002</ele>
        <time>2020-02-07T09:11:46Z</time>
      </trkpt>
      <trkpt lat="46.00316" lon="6.69045">
        <ele>1577</ele>
        <time>2020-02-07T09:11:59Z</time>
      </trkpt>
      <trkpt lat="46.00311" lon="6.69041">
        <ele>1576.4004</ele>
        <time>2020-02-07T09:12:07Z</time>
      </trkpt>
      <trkpt lat="46.00311" lon="6.69032">
        <ele>1575.7998</ele>
        <time>2020-02-07T09:12:31Z</time>
      </trkpt>
      <trkpt lat="46.00314" lon="6.69027">
        <ele>1575.7998</ele>
        <time>2020-02-07T09:12:32Z</time>
      </trkpt>
      <trkpt lat="46.00314" lon="6.69026">
        <ele>1575.7998</ele>
        <time>2020-02-07T09:12:34Z</time>
      </trkpt>
      <trkpt lat="46.00308" lon="6.69025">
        <ele>1577</ele>
        <time>2020-02-07T09:12:41Z</time>
      </trkpt>
      <trkpt lat="46.00307" lon="6.69022">
        <ele>1576.4004</ele>
        <time>2020-02-07T09:12:46Z</time>
      </trkpt>
      <trkpt lat="46.00298" lon="6.69018">
        <ele>1579</ele>
        <time>2020-02-07T09:12:55Z</time>
      </trkpt>
      <trkpt lat="46.00295" lon="6.69013">
        <ele>1578.6006</ele>
        <time>2020-02-07T09:13:02Z</time>
      </trkpt>
      <trkpt lat="46.00288" lon="6.69019">
        <ele>1580.4004</ele>
        <time>2020-02-07T09:13:10Z</time>
      </trkpt>
      <trkpt lat="46.00284" lon="6.69019">
        <ele>1581.7998</ele>
        <time>2020-02-07T09:13:20Z</time>
      </trkpt>
      <trkpt lat="46.00282" lon="6.69027">
        <ele>1582.1006</ele>
        <time>2020-02-07T09:13:33Z</time>
      </trkpt>
      <trkpt lat="46.00279" lon="6.69027">
        <ele>1583.4004</ele>
        <time>2020-02-07T09:13:35Z</time>
      </trkpt>
      <trkpt lat="46.00273" lon="6.69024">
        <ele>1584.7002</ele>
        <time>2020-02-07T09:13:46Z</time>
      </trkpt>
      <trkpt lat="46.00272" lon="6.69023">
        <ele>1584.6006</ele>
        <time>2020-02-07T09:13:48Z</time>
      </trkpt>
      <trkpt lat="46.00273" lon="6.69016">
        <ele>1584.6006</ele>
        <time>2020-02-07T09:13:57Z</time>
      </trkpt>
      <trkpt lat="46.00267" lon="6.69017">
        <ele>1586</ele>
        <time>2020-02-07T09:14:04Z</time>
      </trkpt>
      <trkpt lat="46.00262" lon="6.69014">
        <ele>1587.5</ele>
        <time>2020-02-07T09:14:10Z</time>
      </trkpt>
      <trkpt lat="46.00261" lon="6.6901">
        <ele>1587.5</ele>
        <time>2020-02-07T09:14:14Z</time>
      </trkpt>
      <trkpt lat="46.00263" lon="6.69008">
        <ele>1586</ele>
        <time>2020-02-07T09:14:16Z</time>
      </trkpt>
      <trkpt lat="46.00265" lon="6.68999">
        <ele>1586</ele>
        <time>2020-02-07T09:14:24Z</time>
      </trkpt>
      <trkpt lat="46.00265" lon="6.68989">
        <ele>1585.7002</ele>
        <time>2020-02-07T09:14:35Z</time>
      </trkpt>
      <trkpt lat="46.00263" lon="6.68984">
        <ele>1585.7002</ele>
        <time>2020-02-07T09:14:38Z</time>
      </trkpt>
      <trkpt lat="46.0026" lon="6.68981">
        <ele>1587.1006</ele>
        <time>2020-02-07T09:14:40Z</time>
      </trkpt>
      <trkpt lat="46.00255" lon="6.68981">
        <ele>1588.9004</ele>
        <time>2020-02-07T09:14:45Z</time>
      </trkpt>
      <trkpt lat="46.00253" lon="6.68978">
        <ele>1588.9004</ele>
        <time>2020-02-07T09:14:47Z</time>
      </trkpt>
      <trkpt lat="46.00246" lon="6.68975">
        <ele>1590.7002</ele>
        <time>2020-02-07T09:14:52Z</time>
      </trkpt>
      <trkpt lat="46.00244" lon="6.68966">
        <ele>1592.2998</ele>
        <time>2020-02-07T09:14:57Z</time>
      </trkpt>
      <trkpt lat="46.00245" lon="6.68962">
        <ele>1590</ele>
        <time>2020-02-07T09:15:02Z</time>
      </trkpt>
      <trkpt lat="46.00242" lon="6.68957">
        <ele>1592</ele>
        <time>2020-02-07T09:15:06Z</time>
      </trkpt>
      <trkpt lat="46.00236" lon="6.68962">
        <ele>1593.9004</ele>
        <time>2020-02-07T09:15:12Z</time>
      </trkpt>
      <trkpt lat="46.0023" lon="6.68956">
        <ele>1595.5</ele>
        <time>2020-02-07T09:15:21Z</time>
      </trkpt>
      <trkpt lat="46.00225" lon="6.68956">
        <ele>1597.6006</ele>
        <time>2020-02-07T09:15:27Z</time>
      </trkpt>
      <trkpt lat="46.00216" lon="6.68953">
        <ele>1599.2002</ele>
        <time>2020-02-07T09:15:31Z</time>
      </trkpt>
      <trkpt lat="46.00213" lon="6.68945">
        <ele>1600.7002</ele>
        <time>2020-02-07T09:15:36Z</time>
      </trkpt>
      <trkpt lat="46.00206" lon="6.68936">
        <ele>1602.2002</ele>
        <time>2020-02-07T09:15:42Z</time>
      </trkpt>
      <trkpt lat="46.00197" lon="6.68928">
        <ele>1603.7002</ele>
        <time>2020-02-07T09:15:51Z</time>
      </trkpt>
      <trkpt lat="46.00193" lon="6.6892">
        <ele>1605.1006</ele>
        <time>2020-02-07T09:15:57Z</time>
      </trkpt>
      <trkpt lat="46.0019" lon="6.68917">
        <ele>1607</ele>
        <time>2020-02-07T09:16:00Z</time>
      </trkpt>
      <trkpt lat="46.00182" lon="6.68896">
        <ele>1608</ele>
        <time>2020-02-07T09:16:11Z</time>
      </trkpt>
      <trkpt lat="46.00178" lon="6.68891">
        <ele>1609.4004</ele>
        <time>2020-02-07T09:16:16Z</time>
      </trkpt>
      <trkpt lat="46.00179" lon="6.68882">
        <ele>1606.9004</ele>
        <time>2020-02-07T09:16:22Z</time>
      </trkpt>
      <trkpt lat="46.00182" lon="6.68878">
        <ele>1606.1006</ele>
        <time>2020-02-07T09:16:25Z</time>
      </trkpt>
      <trkpt lat="46.0018" lon="6.68874">
        <ele>1606.1006</ele>
        <time>2020-02-07T09:16:29Z</time>
      </trkpt>
      <trkpt lat="46.00182" lon="6.68868">
        <ele>1605.2002</ele>
        <time>2020-02-07T09:16:35Z</time>
      </trkpt>
      <trkpt lat="46.00177" lon="6.68864">
        <ele>1607.6006</ele>
        <time>2020-02-07T09:16:38Z</time>
      </trkpt>
      <trkpt lat="46.00175" lon="6.68859">
        <ele>1606.7002</ele>
        <time>2020-02-07T09:16:42Z</time>
      </trkpt>
      <trkpt lat="46.00165" lon="6.68847">
        <ele>1610.6006</ele>
        <time>2020-02-07T09:16:54Z</time>
      </trkpt>
      <trkpt lat="46.00154" lon="6.68842">
        <ele>1614.9004</ele>
        <time>2020-02-07T09:17:08Z</time>
      </trkpt>
      <trkpt lat="46.00151" lon="6.68838">
        <ele>1614.9004</ele>
        <time>2020-02-07T09:17:14Z</time>
      </trkpt>
      <trkpt lat="46.0015" lon="6.68839">
        <ele>1614.9004</ele>
        <time>2020-02-07T09:17:18Z</time>
      </trkpt>
      <trkpt lat="46.00147" lon="6.68849">
        <ele>1617.7998</ele>
        <time>2020-02-07T09:17:26Z</time>
      </trkpt>
      <trkpt lat="46.00151" lon="6.68856">
        <ele>1615.7998</ele>
        <time>2020-02-07T09:17:32Z</time>
      </trkpt>
      <trkpt lat="46.00155" lon="6.68868">
        <ele>1616.2002</ele>
        <time>2020-02-07T09:17:43Z</time>
      </trkpt>
      <trkpt lat="46.00155" lon="6.68867">
        <ele>1614</ele>
        <time>2020-02-07T09:17:44Z</time>
      </trkpt>
      <trkpt lat="46.00153" lon="6.68865">
        <ele>1616.2002</ele>
        <time>2020-02-07T09:17:52Z</time>
      </trkpt>
      <trkpt lat="46.00154" lon="6.68869">
        <ele>1616.2002</ele>
        <time>2020-02-07T09:17:56Z</time>
      </trkpt>
      <trkpt lat="46.00152" lon="6.6887">
        <ele>1616.6006</ele>
        <time>2020-02-07T09:18:00Z</time>
      </trkpt>
      <trkpt lat="46.00151" lon="6.68876">
        <ele>1616.6006</ele>
        <time>2020-02-07T09:18:06Z</time>
      </trkpt>
      <trkpt lat="46.00147" lon="6.68877">
        <ele>1618.7998</ele>
        <time>2020-02-07T09:18:10Z</time>
      </trkpt>
      <trkpt lat="46.0014" lon="6.68864">
        <ele>1620.6006</ele>
        <time>2020-02-07T09:18:33Z</time>
      </trkpt>
      <trkpt lat="46.00136" lon="6.68864">
        <ele>1622.7002</ele>
        <time>2020-02-07T09:18:40Z</time>
      </trkpt>
      <trkpt lat="46.00133" lon="6.68861">
        <ele>1622.5</ele>
        <time>2020-02-07T09:18:46Z</time>
      </trkpt>
      <trkpt lat="46.00134" lon="6.6886">
        <ele>1622.5</ele>
        <time>2020-02-07T09:18:47Z</time>
      </trkpt>
      <trkpt lat="46.00129" lon="6.68855">
        <ele>1624.5</ele>
        <time>2020-02-07T09:18:57Z</time>
      </trkpt>
      <trkpt lat="46.00126" lon="6.68846">
        <ele>1624.2998</ele>
        <time>2020-02-07T09:19:07Z</time>
      </trkpt>
      <trkpt lat="46.00121" lon="6.68848">
        <ele>1626.2002</ele>
        <time>2020-02-07T09:19:14Z</time>
      </trkpt>
      <trkpt lat="46.00115" lon="6.68842">
        <ele>1627.6006</ele>
        <time>2020-02-07T09:19:29Z</time>
      </trkpt>
      <trkpt lat="46.00111" lon="6.6884">
        <ele>1629.2002</ele>
        <time>2020-02-07T09:19:33Z</time>
      </trkpt>
      <trkpt lat="46.00106" lon="6.68841">
        <ele>1630.7002</ele>
        <time>2020-02-07T09:19:43Z</time>
      </trkpt>
      <trkpt lat="46.00104" lon="6.68844">
        <ele>1630.7002</ele>
        <time>2020-02-07T09:19:48Z</time>
      </trkpt>
      <trkpt lat="46.00098" lon="6.68838">
        <ele>1632</ele>
        <time>2020-02-07T09:19:54Z</time>
      </trkpt>
      <trkpt lat="46.00087" lon="6.68833">
        <ele>1634.4004</ele>
        <time>2020-02-07T09:20:08Z</time>
      </trkpt>
      <trkpt lat="46.00085" lon="6.68829">
        <ele>1634.4004</ele>
        <time>2020-02-07T09:20:14Z</time>
      </trkpt>
      <trkpt lat="46.00082" lon="6.68828">
        <ele>1635.7002</ele>
        <time>2020-02-07T09:20:16Z</time>
      </trkpt>
      <trkpt lat="46.00083" lon="6.68826">
        <ele>1635.7002</ele>
        <time>2020-02-07T09:20:17Z</time>
      </trkpt>
      <trkpt lat="46.00064" lon="6.68816">
        <ele>1639.7002</ele>
        <time>2020-02-07T09:20:39Z</time>
      </trkpt>
      <trkpt lat="46.00061" lon="6.68806">
        <ele>1640.1006</ele>
        <time>2020-02-07T09:20:49Z</time>
      </trkpt>
      <trkpt lat="46.00061" lon="6.68792">
        <ele>1641.5</ele>
        <time>2020-02-07T09:21:02Z</time>
      </trkpt>
      <trkpt lat="46.00063" lon="6.68788">
        <ele>1641.5</ele>
        <time>2020-02-07T09:21:06Z</time>
      </trkpt>
      <trkpt lat="46.00064" lon="6.68783">
        <ele>1642.2002</ele>
        <time>2020-02-07T09:21:12Z</time>
      </trkpt>
      <trkpt lat="46.00071" lon="6.68775">
        <ele>1641.5</ele>
        <time>2020-02-07T09:21:21Z</time>
      </trkpt>
      <trkpt lat="46.00075" lon="6.68765">
        <ele>1640.7998</ele>
        <time>2020-02-07T09:21:27Z</time>
      </trkpt>
      <trkpt lat="46.00077" lon="6.68731">
        <ele>1642.9004</ele>
        <time>2020-02-07T09:21:49Z</time>
      </trkpt>
      <trkpt lat="46.00076" lon="6.68729">
        <ele>1642.9004</ele>
        <time>2020-02-07T09:21:51Z</time>
      </trkpt>
      <trkpt lat="46.00081" lon="6.68714">
        <ele>1641.2998</ele>
        <time>2020-02-07T09:22:02Z</time>
      </trkpt>
      <trkpt lat="46.0008" lon="6.68711">
        <ele>1641.2998</ele>
        <time>2020-02-07T09:22:04Z</time>
      </trkpt>
      <trkpt lat="46.00086" lon="6.68691">
        <ele>1639.4004</ele>
        <time>2020-02-07T09:22:16Z</time>
      </trkpt>
      <trkpt lat="46.00089" lon="6.68664">
        <ele>1639.9004</ele>
        <time>2020-02-07T09:22:32Z</time>
      </trkpt>
      <trkpt lat="46.00092" lon="6.68659">
        <ele>1637.6006</ele>
        <time>2020-02-07T09:22:36Z</time>
      </trkpt>
      <trkpt lat="46.00094" lon="6.6865">
        <ele>1637.7002</ele>
        <time>2020-02-07T09:22:43Z</time>
      </trkpt>
      <trkpt lat="46.00096" lon="6.68628">
        <ele>1634.7998</ele>
        <time>2020-02-07T09:23:00Z</time>
      </trkpt>
      <trkpt lat="46.00092" lon="6.68603">
        <ele>1638.2002</ele>
        <time>2020-02-07T09:23:18Z</time>
      </trkpt>
      <trkpt lat="46.00092" lon="6.68592">
        <ele>1638.7998</ele>
        <time>2020-02-07T09:23:25Z</time>
      </trkpt>
      <trkpt lat="46.0009" lon="6.68587">
        <ele>1638.7998</ele>
        <time>2020-02-07T09:23:29Z</time>
      </trkpt>
      <trkpt lat="46.00091" lon="6.68573">
        <ele>1640.6006</ele>
        <time>2020-02-07T09:23:39Z</time>
      </trkpt>
      <trkpt lat="46.00085" lon="6.68559">
        <ele>1645.2998</ele>
        <time>2020-02-07T09:23:50Z</time>
      </trkpt>
      <trkpt lat="46.00086" lon="6.68554">
        <ele>1645.2998</ele>
        <time>2020-02-07T09:23:54Z</time>
      </trkpt>
      <trkpt lat="46.00081" lon="6.68549">
        <ele>1648.7002</ele>
        <time>2020-02-07T09:23:59Z</time>
      </trkpt>
      <trkpt lat="46.00077" lon="6.6854">
        <ele>1651.9004</ele>
        <time>2020-02-07T09:24:06Z</time>
      </trkpt>
      <trkpt lat="46.00073" lon="6.68519">
        <ele>1653.7002</ele>
        <time>2020-02-07T09:24:18Z</time>
      </trkpt>
      <trkpt lat="46.00074" lon="6.68513">
        <ele>1654.5</ele>
        <time>2020-02-07T09:24:20Z</time>
      </trkpt>
      <trkpt lat="46.00072" lon="6.6851">
        <ele>1654.5</ele>
        <time>2020-02-07T09:24:23Z</time>
      </trkpt>
      <trkpt lat="46.00072" lon="6.68496">
        <ele>1658.1006</ele>
        <time>2020-02-07T09:24:32Z</time>
      </trkpt>
      <trkpt lat="46.00068" lon="6.68488">
        <ele>1658.9004</ele>
        <time>2020-02-07T09:24:38Z</time>
      </trkpt>
      <trkpt lat="46.00068" lon="6.68481">
        <ele>1659.5</ele>
        <time>2020-02-07T09:24:43Z</time>
      </trkpt>
      <trkpt lat="46.00065" lon="6.68477">
        <ele>1661.7002</ele>
        <time>2020-02-07T09:24:47Z</time>
      </trkpt>
      <trkpt lat="46.00063" lon="6.68473">
        <ele>1662.2998</ele>
        <time>2020-02-07T09:24:54Z</time>
      </trkpt>
      <trkpt lat="46.0006" lon="6.68474">
        <ele>1662.2998</ele>
        <time>2020-02-07T09:24:57Z</time>
      </trkpt>
      <trkpt lat="46.00057" lon="6.68472">
        <ele>1664.4004</ele>
        <time>2020-02-07T09:25:01Z</time>
      </trkpt>
      <trkpt lat="46.00056" lon="6.68464">
        <ele>1665.1006</ele>
        <time>2020-02-07T09:25:08Z</time>
      </trkpt>
      <trkpt lat="46.00048" lon="6.68452">
        <ele>1667.7998</ele>
        <time>2020-02-07T09:25:20Z</time>
      </trkpt>
      <trkpt lat="46.00051" lon="6.68442">
        <ele>1668.5</ele>
        <time>2020-02-07T09:25:30Z</time>
      </trkpt>
      <trkpt lat="46.00046" lon="6.68432">
        <ele>1672.1006</ele>
        <time>2020-02-07T09:25:46Z</time>
      </trkpt>
      <trkpt lat="46.00046" lon="6.68428">
        <ele>1672.1006</ele>
        <time>2020-02-07T09:25:52Z</time>
      </trkpt>
      <trkpt lat="46.00049" lon="6.68423">
        <ele>1670.2998</ele>
        <time>2020-02-07T09:25:59Z</time>
      </trkpt>
      <trkpt lat="46.00045" lon="6.68387">
        <ele>1675.7998</ele>
        <time>2020-02-07T09:26:20Z</time>
      </trkpt>
      <trkpt lat="46.00048" lon="6.68385">
        <ele>1673</ele>
        <time>2020-02-07T09:26:23Z</time>
      </trkpt>
      <trkpt lat="46.00047" lon="6.6838">
        <ele>1676.6006</ele>
        <time>2020-02-07T09:26:28Z</time>
      </trkpt>
      <trkpt lat="46.00048" lon="6.68377">
        <ele>1673.7002</ele>
        <time>2020-02-07T09:26:30Z</time>
      </trkpt>
      <trkpt lat="46.00047" lon="6.68377">
        <ele>1676.6006</ele>
        <time>2020-02-07T09:26:31Z</time>
      </trkpt>
      <trkpt lat="46.0005" lon="6.68366">
        <ele>1674.5</ele>
        <time>2020-02-07T09:26:45Z</time>
      </trkpt>
      <trkpt lat="46.00045" lon="6.68361">
        <ele>1678.4004</ele>
        <time>2020-02-07T09:26:51Z</time>
      </trkpt>
      <trkpt lat="46.00046" lon="6.68359">
        <ele>1678.4004</ele>
        <time>2020-02-07T09:26:53Z</time>
      </trkpt>
      <trkpt lat="46.00043" lon="6.68353">
        <ele>1679.4004</ele>
        <time>2020-02-07T09:26:58Z</time>
      </trkpt>
      <trkpt lat="46.00032" lon="6.68359">
        <ele>1684.6006</ele>
        <time>2020-02-07T09:27:13Z</time>
      </trkpt>
      <trkpt lat="46.00028" lon="6.68358">
        <ele>1687.6006</ele>
        <time>2020-02-07T09:27:19Z</time>
      </trkpt>
      <trkpt lat="46.0003" lon="6.68358">
        <ele>1687.6006</ele>
        <time>2020-02-07T09:27:20Z</time>
      </trkpt>
      <trkpt lat="46.00029" lon="6.68356">
        <ele>1687.6006</ele>
        <time>2020-02-07T09:27:27Z</time>
      </trkpt>
      <trkpt lat="46.00024" lon="6.68356">
        <ele>1687.6006</ele>
        <time>2020-02-07T09:27:35Z</time>
      </trkpt>
      <trkpt lat="46.00021" lon="6.68355">
        <ele>1692</ele>
        <time>2020-02-07T09:27:45Z</time>
      </trkpt>
      <trkpt lat="46.00017" lon="6.68358">
        <ele>1693.7002</ele>
        <time>2020-02-07T09:27:50Z</time>
      </trkpt>
      <trkpt lat="46.0002" lon="6.68359">
        <ele>1690.6006</ele>
        <time>2020-02-07T09:27:58Z</time>
      </trkpt>
      <trkpt lat="46.00015" lon="6.68359">
        <ele>1693.7002</ele>
        <time>2020-02-07T09:28:14Z</time>
      </trkpt>
      <trkpt lat="46.00013" lon="6.68361">
        <ele>1693.7002</ele>
        <time>2020-02-07T09:28:23Z</time>
      </trkpt>
      <trkpt lat="46.0001" lon="6.6836">
        <ele>1696.7002</ele>
        <time>2020-02-07T09:28:32Z</time>
      </trkpt>
      <trkpt lat="46.00008" lon="6.68357">
        <ele>1696.7002</ele>
        <time>2020-02-07T09:28:34Z</time>
      </trkpt>
      <trkpt lat="46.00009" lon="6.68358">
        <ele>1696.7002</ele>
        <time>2020-02-07T09:28:36Z</time>
      </trkpt>
      <trkpt lat="46.00013" lon="6.68355">
        <ele>1693.7002</ele>
        <time>2020-02-07T09:28:42Z</time>
      </trkpt>
      <trkpt lat="46.00007" lon="6.68352">
        <ele>1698.2998</ele>
        <time>2020-02-07T09:28:49Z</time>
      </trkpt>
      <trkpt lat="46.00009" lon="6.68352">
        <ele>1698.2998</ele>
        <time>2020-02-07T09:28:52Z</time>
      </trkpt>
      <trkpt lat="46.00011" lon="6.6836">
        <ele>1696.7002</ele>
        <time>2020-02-07T09:29:12Z</time>
      </trkpt>
      <trkpt lat="46.00013" lon="6.6836">
        <ele>1693.7002</ele>
        <time>2020-02-07T09:29:17Z</time>
      </trkpt>
      <trkpt lat="46.00012" lon="6.68362">
        <ele>1696.7002</ele>
        <time>2020-02-07T09:29:22Z</time>
      </trkpt>
      <trkpt lat="46.00014" lon="6.6836">
        <ele>1693.7002</ele>
        <time>2020-02-07T09:29:26Z</time>
      </trkpt>
      <trkpt lat="46.00011" lon="6.68356">
        <ele>1696.7002</ele>
        <time>2020-02-07T09:29:32Z</time>
      </trkpt>
      <trkpt lat="46.00009" lon="6.68346">
        <ele>1699.7998</ele>
        <time>2020-02-07T09:29:38Z</time>
      </trkpt>
      <trkpt lat="46.00006" lon="6.68347">
        <ele>1701.2998</ele>
        <time>2020-02-07T09:29:41Z</time>
      </trkpt>
      <trkpt lat="46.00004" lon="6.68343">
        <ele>1703</ele>
        <time>2020-02-07T09:29:48Z</time>
      </trkpt>
      <trkpt lat="45.99996" lon="6.68343">
        <ele>1706</ele>
        <time>2020-02-07T09:30:00Z</time>
      </trkpt>
      <trkpt lat="45.99993" lon="6.68341">
        <ele>1709.1006</ele>
        <time>2020-02-07T09:30:06Z</time>
      </trkpt>
      <trkpt lat="45.99992" lon="6.68343">
        <ele>1709.1006</ele>
        <time>2020-02-07T09:30:09Z</time>
      </trkpt>
      <trkpt lat="45.99984" lon="6.68344">
        <ele>1712</ele>
        <time>2020-02-07T09:30:26Z</time>
      </trkpt>
      <trkpt lat="45.99987" lon="6.68345">
        <ele>1712</ele>
        <time>2020-02-07T09:30:30Z</time>
      </trkpt>
      <trkpt lat="45.99984" lon="6.68342">
        <ele>1712</ele>
        <time>2020-02-07T09:30:39Z</time>
      </trkpt>
      <trkpt lat="45.99982" lon="6.68344">
        <ele>1714.9004</ele>
        <time>2020-02-07T09:30:41Z</time>
      </trkpt>
      <trkpt lat="45.99974" lon="6.68343">
        <ele>1717.7998</ele>
        <time>2020-02-07T09:30:52Z</time>
      </trkpt>
      <trkpt lat="45.99976" lon="6.6834">
        <ele>1717.7998</ele>
        <time>2020-02-07T09:31:01Z</time>
      </trkpt>
      <trkpt lat="45.99976" lon="6.68342">
        <ele>1717.7998</ele>
        <time>2020-02-07T09:31:03Z</time>
      </trkpt>
      <trkpt lat="45.99978" lon="6.68339">
        <ele>1714.9004</ele>
        <time>2020-02-07T09:31:06Z</time>
      </trkpt>
      <trkpt lat="45.99977" lon="6.68336">
        <ele>1716.6006</ele>
        <time>2020-02-07T09:31:14Z</time>
      </trkpt>
      <trkpt lat="45.99979" lon="6.68335">
        <ele>1716.6006</ele>
        <time>2020-02-07T09:31:17Z</time>
      </trkpt>
      <trkpt lat="45.99977" lon="6.68326">
        <ele>1718.2998</ele>
        <time>2020-02-07T09:31:46Z</time>
      </trkpt>
      <trkpt lat="45.9998" lon="6.68323">
        <ele>1718.2998</ele>
        <time>2020-02-07T09:31:48Z</time>
      </trkpt>
      <trkpt lat="45.9998" lon="6.68318">
        <ele>1720</ele>
        <time>2020-02-07T09:31:51Z</time>
      </trkpt>
      <trkpt lat="45.9998" lon="6.68301">
        <ele>1723.4004</ele>
        <time>2020-02-07T09:32:03Z</time>
      </trkpt>
      <trkpt lat="45.99985" lon="6.68286">
        <ele>1723.6006</ele>
        <time>2020-02-07T09:32:16Z</time>
      </trkpt>
      <trkpt lat="45.9998" lon="6.68277">
        <ele>1727.9004</ele>
        <time>2020-02-07T09:32:24Z</time>
      </trkpt>
      <trkpt lat="45.99974" lon="6.6827">
        <ele>1730.7998</ele>
        <time>2020-02-07T09:32:32Z</time>
      </trkpt>
      <trkpt lat="45.99973" lon="6.68264">
        <ele>1732.1006</ele>
        <time>2020-02-07T09:32:37Z</time>
      </trkpt>
      <trkpt lat="45.9997" lon="6.68262">
        <ele>1734.7998</ele>
        <time>2020-02-07T09:32:41Z</time>
      </trkpt>
      <trkpt lat="45.99966" lon="6.68267">
        <ele>1734.7998</ele>
        <time>2020-02-07T09:32:47Z</time>
      </trkpt>
      <trkpt lat="45.99963" lon="6.68269">
        <ele>1737.4004</ele>
        <time>2020-02-07T09:32:53Z</time>
      </trkpt>
      <trkpt lat="45.99961" lon="6.68268">
        <ele>1737.4004</ele>
        <time>2020-02-07T09:32:56Z</time>
      </trkpt>
      <trkpt lat="45.99962" lon="6.68267">
        <ele>1737.4004</ele>
        <time>2020-02-07T09:32:59Z</time>
      </trkpt>
      <trkpt lat="45.99953" lon="6.68273">
        <ele>1738.5</ele>
        <time>2020-02-07T09:33:10Z</time>
      </trkpt>
      <trkpt lat="45.99949" lon="6.68284">
        <ele>1739.5</ele>
        <time>2020-02-07T09:33:23Z</time>
      </trkpt>
      <trkpt lat="45.99942" lon="6.68286">
        <ele>1741.7002</ele>
        <time>2020-02-07T09:33:33Z</time>
      </trkpt>
      <trkpt lat="45.99938" lon="6.68296">
        <ele>1741.5</ele>
        <time>2020-02-07T09:33:44Z</time>
      </trkpt>
      <trkpt lat="45.99931" lon="6.68308">
        <ele>1742.2998</ele>
        <time>2020-02-07T09:33:58Z</time>
      </trkpt>
      <trkpt lat="45.99931" lon="6.68315">
        <ele>1741</ele>
        <time>2020-02-07T09:34:07Z</time>
      </trkpt>
      <trkpt lat="45.99933" lon="6.68317">
        <ele>1741</ele>
        <time>2020-02-07T09:34:10Z</time>
      </trkpt>
      <trkpt lat="45.99932" lon="6.68316">
        <ele>1741</ele>
        <time>2020-02-07T09:34:11Z</time>
      </trkpt>
      <trkpt lat="45.99934" lon="6.68317">
        <ele>1741</ele>
        <time>2020-02-07T09:34:13Z</time>
      </trkpt>
      <trkpt lat="45.99938" lon="6.68309">
        <ele>1740.2002</ele>
        <time>2020-02-07T09:34:28Z</time>
      </trkpt>
      <trkpt lat="45.99938" lon="6.68304">
        <ele>1740.2002</ele>
        <time>2020-02-07T09:34:33Z</time>
      </trkpt>
      <trkpt lat="45.99936" lon="6.68302">
        <ele>1741.5</ele>
        <time>2020-02-07T09:34:36Z</time>
      </trkpt>
      <trkpt lat="45.99927" lon="6.68304">
        <ele>1744.2998</ele>
        <time>2020-02-07T09:34:58Z</time>
      </trkpt>
      <trkpt lat="45.99925" lon="6.68306">
        <ele>1744.2998</ele>
        <time>2020-02-07T09:35:04Z</time>
      </trkpt>
      <trkpt lat="45.99925" lon="6.68301">
        <ele>1745.4004</ele>
        <time>2020-02-07T09:35:15Z</time>
      </trkpt>
      <trkpt lat="45.99924" lon="6.68302">
        <ele>1745.4004</ele>
        <time>2020-02-07T09:35:26Z</time>
      </trkpt>
      <trkpt lat="45.99926" lon="6.68303">
        <ele>1745.4004</ele>
        <time>2020-02-07T09:35:28Z</time>
      </trkpt>
      <trkpt lat="45.99925" lon="6.68299">
        <ele>1745.4004</ele>
        <time>2020-02-07T09:35:45Z</time>
      </trkpt>
      <trkpt lat="45.99926" lon="6.68301">
        <ele>1745.4004</ele>
        <time>2020-02-07T09:35:49Z</time>
      </trkpt>
      <trkpt lat="45.99924" lon="6.683">
        <ele>1745.4004</ele>
        <time>2020-02-07T09:36:00Z</time>
      </trkpt>
      <trkpt lat="45.99922" lon="6.68303">
        <ele>1747.1006</ele>
        <time>2020-02-07T09:36:16Z</time>
      </trkpt>
      <trkpt lat="45.99924" lon="6.68307">
        <ele>1744.2998</ele>
        <time>2020-02-07T09:36:28Z</time>
      </trkpt>
      <trkpt lat="45.99925" lon="6.68305">
        <ele>1744.2998</ele>
        <time>2020-02-07T09:36:39Z</time>
      </trkpt>
      <trkpt lat="45.99918" lon="6.68305">
        <ele>1745.9004</ele>
        <time>2020-02-07T09:36:52Z</time>
      </trkpt>
      <trkpt lat="45.99916" lon="6.68306">
        <ele>1747.2998</ele>
        <time>2020-02-07T09:36:59Z</time>
      </trkpt>
      <trkpt lat="45.99907" lon="6.68301">
        <ele>1749.7002</ele>
        <time>2020-02-07T09:37:12Z</time>
      </trkpt>
      <trkpt lat="45.99903" lon="6.68304">
        <ele>1749.7002</ele>
        <time>2020-02-07T09:37:18Z</time>
      </trkpt>
      <trkpt lat="45.999" lon="6.68309">
        <ele>1749.7002</ele>
        <time>2020-02-07T09:37:24Z</time>
      </trkpt>
      <trkpt lat="45.99897" lon="6.68304">
        <ele>1750.7002</ele>
        <time>2020-02-07T09:37:29Z</time>
      </trkpt>
      <trkpt lat="45.99894" lon="6.68303">
        <ele>1751.7002</ele>
        <time>2020-02-07T09:37:35Z</time>
      </trkpt>
      <trkpt lat="45.99897" lon="6.68282">
        <ele>1753.9004</ele>
        <time>2020-02-07T09:37:57Z</time>
      </trkpt>
      <trkpt lat="45.99895" lon="6.68275">
        <ele>1754.9004</ele>
        <time>2020-02-07T09:38:04Z</time>
      </trkpt>
      <trkpt lat="45.99895" lon="6.68268">
        <ele>1756</ele>
        <time>2020-02-07T09:38:09Z</time>
      </trkpt>
      <trkpt lat="45.9989" lon="6.68256">
        <ele>1758</ele>
        <time>2020-02-07T09:38:23Z</time>
      </trkpt>
      <trkpt lat="45.99886" lon="6.68237">
        <ele>1760.7002</ele>
        <time>2020-02-07T09:38:38Z</time>
      </trkpt>
      <trkpt lat="45.9989" lon="6.68227">
        <ele>1760.7998</ele>
        <time>2020-02-07T09:38:46Z</time>
      </trkpt>
      <trkpt lat="45.99889" lon="6.68201">
        <ele>1763.2998</ele>
        <time>2020-02-07T09:39:04Z</time>
      </trkpt>
      <trkpt lat="45.99882" lon="6.68188">
        <ele>1765.7002</ele>
        <time>2020-02-07T09:39:16Z</time>
      </trkpt>
      <trkpt lat="45.99879" lon="6.68179">
        <ele>1767.1006</ele>
        <time>2020-02-07T09:39:23Z</time>
      </trkpt>
      <trkpt lat="45.99876" lon="6.68174">
        <ele>1767.9004</ele>
        <time>2020-02-07T09:39:27Z</time>
      </trkpt>
      <trkpt lat="45.99874" lon="6.68154">
        <ele>1770.1006</ele>
        <time>2020-02-07T09:39:42Z</time>
      </trkpt>
      <trkpt lat="45.99864" lon="6.6814">
        <ele>1771.7998</ele>
        <time>2020-02-07T09:39:55Z</time>
      </trkpt>
      <trkpt lat="45.99863" lon="6.68123">
        <ele>1773.1006</ele>
        <time>2020-02-07T09:40:06Z</time>
      </trkpt>
      <trkpt lat="45.99857" lon="6.68108">
        <ele>1774</ele>
        <time>2020-02-07T09:40:19Z</time>
      </trkpt>
      <trkpt lat="45.99853" lon="6.68105">
        <ele>1774.4004</ele>
        <time>2020-02-07T09:40:23Z</time>
      </trkpt>
      <trkpt lat="45.99854" lon="6.68089">
        <ele>1774.7998</ele>
        <time>2020-02-07T09:40:44Z</time>
      </trkpt>
      <trkpt lat="45.99847" lon="6.68086">
        <ele>1775.5</ele>
        <time>2020-02-07T09:40:52Z</time>
      </trkpt>
      <trkpt lat="45.99831" lon="6.68086">
        <ele>1776.2998</ele>
        <time>2020-02-07T09:41:09Z</time>
      </trkpt>
      <trkpt lat="45.99826" lon="6.68081">
        <ele>1776.6006</ele>
        <time>2020-02-07T09:41:16Z</time>
      </trkpt>
      <trkpt lat="45.99823" lon="6.68074">
        <ele>1776.7998</ele>
        <time>2020-02-07T09:41:28Z</time>
      </trkpt>
      <trkpt lat="45.99821" lon="6.68063">
        <ele>1777.2998</ele>
        <time>2020-02-07T09:41:42Z</time>
      </trkpt>
      <trkpt lat="45.99824" lon="6.68054">
        <ele>1777.6006</ele>
        <time>2020-02-07T09:41:52Z</time>
      </trkpt>
      <trkpt lat="45.99823" lon="6.68035">
        <ele>1778.1006</ele>
        <time>2020-02-07T09:42:08Z</time>
      </trkpt>
      <trkpt lat="45.99826" lon="6.6803">
        <ele>1778.1006</ele>
        <time>2020-02-07T09:42:13Z</time>
      </trkpt>
      <trkpt lat="45.99825" lon="6.68024">
        <ele>1778.4004</ele>
        <time>2020-02-07T09:42:21Z</time>
      </trkpt>
      <trkpt lat="45.99827" lon="6.68023">
        <ele>1778.2002</ele>
        <time>2020-02-07T09:42:26Z</time>
      </trkpt>
      <trkpt lat="45.99821" lon="6.68008">
        <ele>1779.2998</ele>
        <time>2020-02-07T09:42:42Z</time>
      </trkpt>
      <trkpt lat="45.99819" lon="6.68">
        <ele>1779.7002</ele>
        <time>2020-02-07T09:42:50Z</time>
      </trkpt>
      <trkpt lat="45.99815" lon="6.67994">
        <ele>1780.5</ele>
        <time>2020-02-07T09:42:58Z</time>
      </trkpt>
      <trkpt lat="45.99812" lon="6.67978">
        <ele>1781.1006</ele>
        <time>2020-02-07T09:43:11Z</time>
      </trkpt>
      <trkpt lat="45.99808" lon="6.67971">
        <ele>1782.2002</ele>
        <time>2020-02-07T09:43:19Z</time>
      </trkpt>
      <trkpt lat="45.99803" lon="6.67968">
        <ele>1783.5</ele>
        <time>2020-02-07T09:43:27Z</time>
      </trkpt>
      <trkpt lat="45.99798" lon="6.67971">
        <ele>1782.7002</ele>
        <time>2020-02-07T09:43:35Z</time>
      </trkpt>
      <trkpt lat="45.99794" lon="6.67972">
        <ele>1783.2002</ele>
        <time>2020-02-07T09:43:41Z</time>
      </trkpt>
      <trkpt lat="45.99793" lon="6.67959">
        <ele>1784.7998</ele>
        <time>2020-02-07T09:43:59Z</time>
      </trkpt>
      <trkpt lat="45.99791" lon="6.67955">
        <ele>1785.2998</ele>
        <time>2020-02-07T09:44:05Z</time>
      </trkpt>
      <trkpt lat="45.99784" lon="6.67952">
        <ele>1786.7002</ele>
        <time>2020-02-07T09:44:16Z</time>
      </trkpt>
      <trkpt lat="45.9978" lon="6.67952">
        <ele>1785.9004</ele>
        <time>2020-02-07T09:44:24Z</time>
      </trkpt>
      <trkpt lat="45.99772" lon="6.67948">
        <ele>1788.1006</ele>
        <time>2020-02-07T09:44:36Z</time>
      </trkpt>
      <trkpt lat="45.99765" lon="6.67947">
        <ele>1789.1006</ele>
        <time>2020-02-07T09:44:47Z</time>
      </trkpt>
      <trkpt lat="45.99751" lon="6.67939">
        <ele>1792.6006</ele>
        <time>2020-02-07T09:45:11Z</time>
      </trkpt>
      <trkpt lat="45.99726" lon="6.67912">
        <ele>1800.4004</ele>
        <time>2020-02-07T09:46:00Z</time>
      </trkpt>
      <trkpt lat="45.99705" lon="6.67903">
        <ele>1806.4004</ele>
        <time>2020-02-07T09:46:31Z</time>
      </trkpt>
      <trkpt lat="45.99689" lon="6.67889">
        <ele>1811.5</ele>
        <time>2020-02-07T09:47:03Z</time>
      </trkpt>
      <trkpt lat="45.99682" lon="6.67865">
        <ele>1814.2002</ele>
        <time>2020-02-07T09:47:27Z</time>
      </trkpt>
      <trkpt lat="45.9968" lon="6.67868">
        <ele>1813.7002</ele>
        <time>2020-02-07T09:47:53Z</time>
      </trkpt>
      <trkpt lat="45.99681" lon="6.67863">
        <ele>1814.2002</ele>
        <time>2020-02-07T09:48:02Z</time>
      </trkpt>
      <trkpt lat="45.99678" lon="6.67857">
        <ele>1815.9004</ele>
        <time>2020-02-07T09:48:08Z</time>
      </trkpt>
      <trkpt lat="45.99673" lon="6.6785">
        <ele>1815.9004</ele>
        <time>2020-02-07T09:48:18Z</time>
      </trkpt>
      <trkpt lat="45.9966" lon="6.6782">
        <ele>1820.7998</ele>
        <time>2020-02-07T09:48:50Z</time>
      </trkpt>
      <trkpt lat="45.99658" lon="6.67817">
        <ele>1820.7998</ele>
        <time>2020-02-07T09:48:53Z</time>
      </trkpt>
      <trkpt lat="45.9965" lon="6.67816">
        <ele>1821.7998</ele>
        <time>2020-02-07T09:49:07Z</time>
      </trkpt>
      <trkpt lat="45.99652" lon="6.67818">
        <ele>1821.7998</ele>
        <time>2020-02-07T09:49:20Z</time>
      </trkpt>
      <trkpt lat="45.9965" lon="6.67813">
        <ele>1822.5</ele>
        <time>2020-02-07T09:49:38Z</time>
      </trkpt>
      <trkpt lat="45.9965" lon="6.67815">
        <ele>1821.7998</ele>
        <time>2020-02-07T09:50:08Z</time>
      </trkpt>
      <trkpt lat="45.99653" lon="6.67818">
        <ele>1821.7998</ele>
        <time>2020-02-07T09:50:38Z</time>
      </trkpt>
      <trkpt lat="45.99651" lon="6.67812">
        <ele>1822.5</ele>
        <time>2020-02-07T09:51:08Z</time>
      </trkpt>
      <trkpt lat="45.99654" lon="6.67814">
        <ele>1821.7998</ele>
        <time>2020-02-07T09:51:28Z</time>
      </trkpt>
      <trkpt lat="45.9965" lon="6.67812">
        <ele>1822.5</ele>
        <time>2020-02-07T09:51:48Z</time>
      </trkpt>
      <trkpt lat="45.99653" lon="6.67816">
        <ele>1821.7998</ele>
        <time>2020-02-07T09:51:52Z</time>
      </trkpt>
      <trkpt lat="45.99652" lon="6.67817">
        <ele>1821.7998</ele>
        <time>2020-02-07T09:51:56Z</time>
      </trkpt>
      <trkpt lat="45.99635" lon="6.67825">
        <ele>1823.7998</ele>
        <time>2020-02-07T09:52:17Z</time>
      </trkpt>
      <trkpt lat="45.99633" lon="6.67829">
        <ele>1823.7998</ele>
        <time>2020-02-07T09:52:22Z</time>
      </trkpt>
      <trkpt lat="45.99629" lon="6.67829">
        <ele>1824.7002</ele>
        <time>2020-02-07T09:52:26Z</time>
      </trkpt>
      <trkpt lat="45.99618" lon="6.67835">
        <ele>1825.7998</ele>
        <time>2020-02-07T09:52:43Z</time>
      </trkpt>
      <trkpt lat="45.99616" lon="6.67835">
        <ele>1825.7998</ele>
        <time>2020-02-07T09:52:47Z</time>
      </trkpt>
      <trkpt lat="45.99614" lon="6.67833">
        <ele>1825.7998</ele>
        <time>2020-02-07T09:52:52Z</time>
      </trkpt>
      <trkpt lat="45.99615" lon="6.67828">
        <ele>1826.5</ele>
        <time>2020-02-07T09:52:59Z</time>
      </trkpt>
      <trkpt lat="45.99623" lon="6.67817">
        <ele>1826.2998</ele>
        <time>2020-02-07T09:53:12Z</time>
      </trkpt>
      <trkpt lat="45.99627" lon="6.67816">
        <ele>1825.4004</ele>
        <time>2020-02-07T09:53:24Z</time>
      </trkpt>
      <trkpt lat="45.99627" lon="6.67811">
        <ele>1826.2002</ele>
        <time>2020-02-07T09:53:29Z</time>
      </trkpt>
      <trkpt lat="45.99628" lon="6.67809">
        <ele>1826.2002</ele>
        <time>2020-02-07T09:53:31Z</time>
      </trkpt>
      <trkpt lat="45.99625" lon="6.67803">
        <ele>1827.1006</ele>
        <time>2020-02-07T09:53:39Z</time>
      </trkpt>
      <trkpt lat="45.99616" lon="6.67801">
        <ele>1828.7998</ele>
        <time>2020-02-07T09:53:56Z</time>
      </trkpt>
      <trkpt lat="45.99609" lon="6.67802">
        <ele>1829.7002</ele>
        <time>2020-02-07T09:54:07Z</time>
      </trkpt>
      <trkpt lat="45.99606" lon="6.67805">
        <ele>1830.7002</ele>
        <time>2020-02-07T09:54:17Z</time>
      </trkpt>
      <trkpt lat="45.99602" lon="6.67805">
        <ele>1830.7002</ele>
        <time>2020-02-07T09:54:23Z</time>
      </trkpt>
      <trkpt lat="45.99584" lon="6.67818">
        <ele>1832.7002</ele>
        <time>2020-02-07T09:54:50Z</time>
      </trkpt>
      <trkpt lat="45.99576" lon="6.6782">
        <ele>1835.2998</ele>
        <time>2020-02-07T09:55:01Z</time>
      </trkpt>
      <trkpt lat="45.99558" lon="6.67831">
        <ele>1838.2998</ele>
        <time>2020-02-07T09:55:36Z</time>
      </trkpt>
      <trkpt lat="45.99536" lon="6.67834">
        <ele>1843.2002</ele>
        <time>2020-02-07T09:56:20Z</time>
      </trkpt>
      <trkpt lat="45.99528" lon="6.67837">
        <ele>1846.7998</ele>
        <time>2020-02-07T09:56:33Z</time>
      </trkpt>
      <trkpt lat="45.99527" lon="6.67839">
        <ele>1846.7998</ele>
        <time>2020-02-07T09:56:36Z</time>
      </trkpt>
      <trkpt lat="45.99516" lon="6.67841">
        <ele>1850.2002</ele>
        <time>2020-02-07T09:56:51Z</time>
      </trkpt>
      <trkpt lat="45.99513" lon="6.67843">
        <ele>1850.2002</ele>
        <time>2020-02-07T09:56:57Z</time>
      </trkpt>
      <trkpt lat="45.99498" lon="6.67844">
        <ele>1856.6006</ele>
        <time>2020-02-07T09:57:20Z</time>
      </trkpt>
      <trkpt lat="45.99496" lon="6.67846">
        <ele>1856.6006</ele>
        <time>2020-02-07T09:57:23Z</time>
      </trkpt>
      <trkpt lat="45.99482" lon="6.6785">
        <ele>1859.9004</ele>
        <time>2020-02-07T09:57:45Z</time>
      </trkpt>
      <trkpt lat="45.99473" lon="6.67855">
        <ele>1863.7998</ele>
        <time>2020-02-07T09:58:01Z</time>
      </trkpt>
      <trkpt lat="45.99458" lon="6.67856">
        <ele>1867.7002</ele>
        <time>2020-02-07T09:58:27Z</time>
      </trkpt>
      <trkpt lat="45.9945" lon="6.6786">
        <ele>1871.1006</ele>
        <time>2020-02-07T09:58:41Z</time>
      </trkpt>
      <trkpt lat="45.99448" lon="6.67859">
        <ele>1871.1006</ele>
        <time>2020-02-07T09:58:45Z</time>
      </trkpt>
      <trkpt lat="45.99449" lon="6.67861">
        <ele>1871.1006</ele>
        <time>2020-02-07T09:59:49Z</time>
      </trkpt>
      <trkpt lat="45.99447" lon="6.67861">
        <ele>1871.1006</ele>
        <time>2020-02-07T10:00:19Z</time>
      </trkpt>
      <trkpt lat="45.99446" lon="6.67864">
        <ele>1873.1006</ele>
        <time>2020-02-07T10:00:39Z</time>
      </trkpt>
      <trkpt lat="45.99448" lon="6.67865">
        <ele>1871.1006</ele>
        <time>2020-02-07T10:01:30Z</time>
      </trkpt>
      <trkpt lat="45.99448" lon="6.67864">
        <ele>1871.1006</ele>
        <time>2020-02-07T10:01:33Z</time>
      </trkpt>
      <trkpt lat="45.99444" lon="6.67863">
        <ele>1873.1006</ele>
        <time>2020-02-07T10:01:42Z</time>
      </trkpt>
      <trkpt lat="45.99438" lon="6.67866">
        <ele>1874.6006</ele>
        <time>2020-02-07T10:01:53Z</time>
      </trkpt>
      <trkpt lat="45.99435" lon="6.67865">
        <ele>1875</ele>
        <time>2020-02-07T10:01:56Z</time>
      </trkpt>
      <trkpt lat="45.99417" lon="6.67874">
        <ele>1880.2002</ele>
        <time>2020-02-07T10:02:25Z</time>
      </trkpt>
      <trkpt lat="45.99414" lon="6.67873">
        <ele>1882</ele>
        <time>2020-02-07T10:02:29Z</time>
      </trkpt>
      <trkpt lat="45.99404" lon="6.67878">
        <ele>1883.5</ele>
        <time>2020-02-07T10:02:44Z</time>
      </trkpt>
      <trkpt lat="45.994" lon="6.67884">
        <ele>1884.7998</ele>
        <time>2020-02-07T10:02:54Z</time>
      </trkpt>
      <trkpt lat="45.99398" lon="6.67885">
        <ele>1884.7998</ele>
        <time>2020-02-07T10:02:57Z</time>
      </trkpt>
      <trkpt lat="45.99398" lon="6.67886">
        <ele>1884.7998</ele>
        <time>2020-02-07T10:02:58Z</time>
      </trkpt>
      <trkpt lat="45.99396" lon="6.67885">
        <ele>1886.2998</ele>
        <time>2020-02-07T10:03:01Z</time>
      </trkpt>
      <trkpt lat="45.99392" lon="6.67888">
        <ele>1886.2998</ele>
        <time>2020-02-07T10:03:11Z</time>
      </trkpt>
      <trkpt lat="45.99378" lon="6.67883">
        <ele>1891.5</ele>
        <time>2020-02-07T10:03:35Z</time>
      </trkpt>
      <trkpt lat="45.99369" lon="6.67883">
        <ele>1893.7998</ele>
        <time>2020-02-07T10:03:50Z</time>
      </trkpt>
      <trkpt lat="45.99357" lon="6.67884">
        <ele>1897.2002</ele>
        <time>2020-02-07T10:04:08Z</time>
      </trkpt>
      <trkpt lat="45.99352" lon="6.6789">
        <ele>1899.1006</ele>
        <time>2020-02-07T10:04:20Z</time>
      </trkpt>
      <trkpt lat="45.99347" lon="6.67891">
        <ele>1900.9004</ele>
        <time>2020-02-07T10:04:27Z</time>
      </trkpt>
      <trkpt lat="45.99343" lon="6.67895">
        <ele>1902.2998</ele>
        <time>2020-02-07T10:04:33Z</time>
      </trkpt>
      <trkpt lat="45.99339" lon="6.67895">
        <ele>1902.2998</ele>
        <time>2020-02-07T10:04:40Z</time>
      </trkpt>
      <trkpt lat="45.99335" lon="6.67893">
        <ele>1904.1006</ele>
        <time>2020-02-07T10:04:49Z</time>
      </trkpt>
      <trkpt lat="45.99333" lon="6.67889">
        <ele>1904.4004</ele>
        <time>2020-02-07T10:04:54Z</time>
      </trkpt>
      <trkpt lat="45.99326" lon="6.67882">
        <ele>1908.2002</ele>
        <time>2020-02-07T10:05:06Z</time>
      </trkpt>
      <trkpt lat="45.9932" lon="6.67881">
        <ele>1909.9004</ele>
        <time>2020-02-07T10:05:16Z</time>
      </trkpt>
      <trkpt lat="45.99314" lon="6.67885">
        <ele>1911.2998</ele>
        <time>2020-02-07T10:05:25Z</time>
      </trkpt>
      <trkpt lat="45.99299" lon="6.67908">
        <ele>1914.1006</ele>
        <time>2020-02-07T10:05:56Z</time>
      </trkpt>
      <trkpt lat="45.99289" lon="6.67909">
        <ele>1917.1006</ele>
        <time>2020-02-07T10:06:16Z</time>
      </trkpt>
      <trkpt lat="45.99285" lon="6.67912">
        <ele>1917.1006</ele>
        <time>2020-02-07T10:06:22Z</time>
      </trkpt>
      <trkpt lat="45.9928" lon="6.67928">
        <ele>1918</ele>
        <time>2020-02-07T10:06:36Z</time>
      </trkpt>
      <trkpt lat="45.99271" lon="6.67945">
        <ele>1920.4004</ele>
        <time>2020-02-07T10:06:54Z</time>
      </trkpt>
      <trkpt lat="45.99259" lon="6.67954">
        <ele>1923.2998</ele>
        <time>2020-02-07T10:07:15Z</time>
      </trkpt>
      <trkpt lat="45.99243" lon="6.67969">
        <ele>1926.7002</ele>
        <time>2020-02-07T10:07:40Z</time>
      </trkpt>
      <trkpt lat="45.99229" lon="6.67998">
        <ele>1931.4004</ele>
        <time>2020-02-07T10:08:08Z</time>
      </trkpt>
      <trkpt lat="45.99223" lon="6.68003">
        <ele>1932.5</ele>
        <time>2020-02-07T10:08:16Z</time>
      </trkpt>
      <trkpt lat="45.99216" lon="6.68006">
        <ele>1933.7002</ele>
        <time>2020-02-07T10:08:26Z</time>
      </trkpt>
      <trkpt lat="45.99202" lon="6.68018">
        <ele>1935.7998</ele>
        <time>2020-02-07T10:08:47Z</time>
      </trkpt>
      <trkpt lat="45.99197" lon="6.68032">
        <ele>1936.5</ele>
        <time>2020-02-07T10:09:02Z</time>
      </trkpt>
      <trkpt lat="45.99188" lon="6.68043">
        <ele>1938.7002</ele>
        <time>2020-02-07T10:09:27Z</time>
      </trkpt>
      <trkpt lat="45.9919" lon="6.68048">
        <ele>1937.2002</ele>
        <time>2020-02-07T10:09:43Z</time>
      </trkpt>
      <trkpt lat="45.99188" lon="6.6805">
        <ele>1938.6006</ele>
        <time>2020-02-07T10:10:09Z</time>
      </trkpt>
      <trkpt lat="45.9919" lon="6.6805">
        <ele>1937.2002</ele>
        <time>2020-02-07T10:10:29Z</time>
      </trkpt>
      <trkpt lat="45.99191" lon="6.68052">
        <ele>1937.2002</ele>
        <time>2020-02-07T10:10:49Z</time>
      </trkpt>
      <trkpt lat="45.99188" lon="6.68046">
        <ele>1938.7002</ele>
        <time>2020-02-07T10:10:52Z</time>
      </trkpt>
      <trkpt lat="45.99188" lon="6.68048">
        <ele>1938.6006</ele>
        <time>2020-02-07T10:10:56Z</time>
      </trkpt>
      <trkpt lat="45.99189" lon="6.68042">
        <ele>1938.7002</ele>
        <time>2020-02-07T10:11:16Z</time>
      </trkpt>
      <trkpt lat="45.99186" lon="6.68038">
        <ele>1938.7002</ele>
        <time>2020-02-07T10:11:17Z</time>
      </trkpt>
      <trkpt lat="45.99184" lon="6.68035">
        <ele>1938.9004</ele>
        <time>2020-02-07T10:11:20Z</time>
      </trkpt>
      <trkpt lat="45.99178" lon="6.68035">
        <ele>1940.2002</ele>
        <time>2020-02-07T10:11:30Z</time>
      </trkpt>
      <trkpt lat="45.99168" lon="6.68042">
        <ele>1942.7998</ele>
        <time>2020-02-07T10:11:46Z</time>
      </trkpt>
      <trkpt lat="45.99164" lon="6.68042">
        <ele>1944.1006</ele>
        <time>2020-02-07T10:11:52Z</time>
      </trkpt>
      <trkpt lat="45.99156" lon="6.68049">
        <ele>1945.5</ele>
        <time>2020-02-07T10:12:08Z</time>
      </trkpt>
      <trkpt lat="45.99149" lon="6.68063">
        <ele>1946.9004</ele>
        <time>2020-02-07T10:12:22Z</time>
      </trkpt>
      <trkpt lat="45.99145" lon="6.68061">
        <ele>1948.2998</ele>
        <time>2020-02-07T10:12:29Z</time>
      </trkpt>
      <trkpt lat="45.99136" lon="6.68062">
        <ele>1949.7998</ele>
        <time>2020-02-07T10:12:44Z</time>
      </trkpt>
      <trkpt lat="45.99131" lon="6.68059">
        <ele>1951.4004</ele>
        <time>2020-02-07T10:12:54Z</time>
      </trkpt>
      <trkpt lat="45.99127" lon="6.68061">
        <ele>1953</ele>
        <time>2020-02-07T10:12:59Z</time>
      </trkpt>
      <trkpt lat="45.99123" lon="6.68068">
        <ele>1954.6006</ele>
        <time>2020-02-07T10:13:07Z</time>
      </trkpt>
      <trkpt lat="45.99123" lon="6.68072">
        <ele>1954.6006</ele>
        <time>2020-02-07T10:13:13Z</time>
      </trkpt>
      <trkpt lat="45.99125" lon="6.68072">
        <ele>1953</ele>
        <time>2020-02-07T10:13:16Z</time>
      </trkpt>
      <trkpt lat="45.99125" lon="6.68075">
        <ele>1953</ele>
        <time>2020-02-07T10:13:18Z</time>
      </trkpt>
      <trkpt lat="45.99129" lon="6.68081">
        <ele>1952.9004</ele>
        <time>2020-02-07T10:13:26Z</time>
      </trkpt>
      <trkpt lat="45.99129" lon="6.68098">
        <ele>1952.7998</ele>
        <time>2020-02-07T10:13:38Z</time>
      </trkpt>
      <trkpt lat="45.9913" lon="6.68099">
        <ele>1951.1006</ele>
        <time>2020-02-07T10:13:39Z</time>
      </trkpt>
      <trkpt lat="45.99131" lon="6.68106">
        <ele>1951</ele>
        <time>2020-02-07T10:13:44Z</time>
      </trkpt>
      <trkpt lat="45.99133" lon="6.68112">
        <ele>1951</ele>
        <time>2020-02-07T10:13:49Z</time>
      </trkpt>
      <trkpt lat="45.99135" lon="6.68113">
        <ele>1951</ele>
        <time>2020-02-07T10:13:51Z</time>
      </trkpt>
      <trkpt lat="45.99134" lon="6.68118">
        <ele>1950.9004</ele>
        <time>2020-02-07T10:13:57Z</time>
      </trkpt>
      <trkpt lat="45.99124" lon="6.68122">
        <ele>1952.7002</ele>
        <time>2020-02-07T10:14:10Z</time>
      </trkpt>
      <trkpt lat="45.99125" lon="6.6813">
        <ele>1952.6006</ele>
        <time>2020-02-07T10:14:15Z</time>
      </trkpt>
      <trkpt lat="45.99131" lon="6.68144">
        <ele>1950.6006</ele>
        <time>2020-02-07T10:14:26Z</time>
      </trkpt>
      <trkpt lat="45.99126" lon="6.68164">
        <ele>1952.1006</ele>
        <time>2020-02-07T10:14:42Z</time>
      </trkpt>
      <trkpt lat="45.99123" lon="6.68169">
        <ele>1953.7998</ele>
        <time>2020-02-07T10:14:47Z</time>
      </trkpt>
      <trkpt lat="45.99121" lon="6.68186">
        <ele>1953.6006</ele>
        <time>2020-02-07T10:15:00Z</time>
      </trkpt>
      <trkpt lat="45.99126" lon="6.6821">
        <ele>1951.7998</ele>
        <time>2020-02-07T10:15:15Z</time>
      </trkpt>
      <trkpt lat="45.99129" lon="6.68244">
        <ele>1951.6006</ele>
        <time>2020-02-07T10:15:39Z</time>
      </trkpt>
      <trkpt lat="45.99128" lon="6.68252">
        <ele>1951.6006</ele>
        <time>2020-02-07T10:15:45Z</time>
      </trkpt>
      <trkpt lat="45.99129" lon="6.68256">
        <ele>1951.6006</ele>
        <time>2020-02-07T10:15:50Z</time>
      </trkpt>
      <trkpt lat="45.99128" lon="6.68309">
        <ele>1952.9004</ele>
        <time>2020-02-07T10:16:35Z</time>
      </trkpt>
      <trkpt lat="45.99131" lon="6.68329">
        <ele>1951.7002</ele>
        <time>2020-02-07T10:16:53Z</time>
      </trkpt>
      <trkpt lat="45.99132" lon="6.68367">
        <ele>1954.7002</ele>
        <time>2020-02-07T10:17:21Z</time>
      </trkpt>
      <trkpt lat="45.99136" lon="6.68396">
        <ele>1954.7002</ele>
        <time>2020-02-07T10:17:46Z</time>
      </trkpt>
      <trkpt lat="45.99138" lon="6.68401">
        <ele>1955.7998</ele>
        <time>2020-02-07T10:17:51Z</time>
      </trkpt>
      <trkpt lat="45.99139" lon="6.68431">
        <ele>1959</ele>
        <time>2020-02-07T10:18:12Z</time>
      </trkpt>
      <trkpt lat="45.99141" lon="6.68457">
        <ele>1961.7002</ele>
        <time>2020-02-07T10:18:31Z</time>
      </trkpt>
      <trkpt lat="45.99144" lon="6.68464">
        <ele>1959.1006</ele>
        <time>2020-02-07T10:18:37Z</time>
      </trkpt>
      <trkpt lat="45.99143" lon="6.68469">
        <ele>1959.7998</ele>
        <time>2020-02-07T10:18:43Z</time>
      </trkpt>
      <trkpt lat="45.99146" lon="6.68477">
        <ele>1960.5</ele>
        <time>2020-02-07T10:18:51Z</time>
      </trkpt>
      <trkpt lat="45.99146" lon="6.68488">
        <ele>1961.1006</ele>
        <time>2020-02-07T10:19:02Z</time>
      </trkpt>
      <trkpt lat="45.99152" lon="6.68516">
        <ele>1959.4004</ele>
        <time>2020-02-07T10:19:22Z</time>
      </trkpt>
      <trkpt lat="45.99153" lon="6.6854">
        <ele>1960.6006</ele>
        <time>2020-02-07T10:19:41Z</time>
      </trkpt>
      <trkpt lat="45.99155" lon="6.68539">
        <ele>1956.9004</ele>
        <time>2020-02-07T10:19:47Z</time>
      </trkpt>
      <trkpt lat="45.99153" lon="6.68538">
        <ele>1960.6006</ele>
        <time>2020-02-07T10:19:59Z</time>
      </trkpt>
      <trkpt lat="45.99153" lon="6.68539">
        <ele>1960.6006</ele>
        <time>2020-02-07T10:20:03Z</time>
      </trkpt>
      <trkpt lat="45.9916" lon="6.68567">
        <ele>1954</ele>
        <time>2020-02-07T10:20:28Z</time>
      </trkpt>
      <trkpt lat="45.99164" lon="6.68574">
        <ele>1954.2998</ele>
        <time>2020-02-07T10:20:34Z</time>
      </trkpt>
      <trkpt lat="45.99171" lon="6.68599">
        <ele>1951.5</ele>
        <time>2020-02-07T10:20:54Z</time>
      </trkpt>
      <trkpt lat="45.9917" lon="6.68607">
        <ele>1951.7998</ele>
        <time>2020-02-07T10:21:06Z</time>
      </trkpt>
      <trkpt lat="45.99168" lon="6.68607">
        <ele>1951.7998</ele>
        <time>2020-02-07T10:21:07Z</time>
      </trkpt>
      <trkpt lat="45.99171" lon="6.68608">
        <ele>1951.7998</ele>
        <time>2020-02-07T10:21:11Z</time>
      </trkpt>
      <trkpt lat="45.99172" lon="6.68626">
        <ele>1949.2002</ele>
        <time>2020-02-07T10:21:32Z</time>
      </trkpt>
      <trkpt lat="45.99174" lon="6.68628">
        <ele>1949.2002</ele>
        <time>2020-02-07T10:21:38Z</time>
      </trkpt>
      <trkpt lat="45.99172" lon="6.68639">
        <ele>1950.2998</ele>
        <time>2020-02-07T10:21:52Z</time>
      </trkpt>
      <trkpt lat="45.99174" lon="6.68653">
        <ele>1951</ele>
        <time>2020-02-07T10:22:08Z</time>
      </trkpt>
      <trkpt lat="45.99171" lon="6.68664">
        <ele>1956</ele>
        <time>2020-02-07T10:22:21Z</time>
      </trkpt>
      <trkpt lat="45.99175" lon="6.68683">
        <ele>1954</ele>
        <time>2020-02-07T10:22:42Z</time>
      </trkpt>
      <trkpt lat="45.99173" lon="6.68694">
        <ele>1954.7998</ele>
        <time>2020-02-07T10:22:54Z</time>
      </trkpt>
      <trkpt lat="45.99175" lon="6.68702">
        <ele>1955.6006</ele>
        <time>2020-02-07T10:23:02Z</time>
      </trkpt>
      <trkpt lat="45.99173" lon="6.68707">
        <ele>1955.6006</ele>
        <time>2020-02-07T10:23:15Z</time>
      </trkpt>
      <trkpt lat="45.99175" lon="6.68709">
        <ele>1956.2998</ele>
        <time>2020-02-07T10:23:53Z</time>
      </trkpt>
      <trkpt lat="45.99177" lon="6.68708">
        <ele>1956.2998</ele>
        <time>2020-02-07T10:24:03Z</time>
      </trkpt>
      <trkpt lat="45.99176" lon="6.68709">
        <ele>1956.2998</ele>
        <time>2020-02-07T10:24:16Z</time>
      </trkpt>
      <trkpt lat="45.99177" lon="6.6871">
        <ele>1956.2998</ele>
        <time>2020-02-07T10:24:37Z</time>
      </trkpt>
      <trkpt lat="45.99176" lon="6.6871">
        <ele>1956.2998</ele>
        <time>2020-02-07T10:24:49Z</time>
      </trkpt>
      <trkpt lat="45.99179" lon="6.68709">
        <ele>1952.9004</ele>
        <time>2020-02-07T10:25:00Z</time>
      </trkpt>
      <trkpt lat="45.99176" lon="6.68708">
        <ele>1956.2998</ele>
        <time>2020-02-07T10:25:13Z</time>
      </trkpt>
      <trkpt lat="45.99174" lon="6.6871">
        <ele>1956.2998</ele>
        <time>2020-02-07T10:25:24Z</time>
      </trkpt>
      <trkpt lat="45.99173" lon="6.68709">
        <ele>1956.2998</ele>
        <time>2020-02-07T10:25:26Z</time>
      </trkpt>
      <trkpt lat="45.99174" lon="6.68708">
        <ele>1956.2998</ele>
        <time>2020-02-07T10:25:36Z</time>
      </trkpt>
      <trkpt lat="45.99173" lon="6.68712">
        <ele>1956.2998</ele>
        <time>2020-02-07T10:25:39Z</time>
      </trkpt>
      <trkpt lat="45.99173" lon="6.68719">
        <ele>1957.1006</ele>
        <time>2020-02-07T10:25:46Z</time>
      </trkpt>
      <trkpt lat="45.99166" lon="6.68733">
        <ele>1961.7002</ele>
        <time>2020-02-07T10:25:59Z</time>
      </trkpt>
      <trkpt lat="45.99151" lon="6.68758">
        <ele>1971.6006</ele>
        <time>2020-02-07T10:26:33Z</time>
      </trkpt>
      <trkpt lat="45.99141" lon="6.68783">
        <ele>1976.9004</ele>
        <time>2020-02-07T10:27:01Z</time>
      </trkpt>
      <trkpt lat="45.99136" lon="6.68788">
        <ele>1976.7002</ele>
        <time>2020-02-07T10:27:09Z</time>
      </trkpt>
      <trkpt lat="45.99124" lon="6.68819">
        <ele>1982</ele>
        <time>2020-02-07T10:27:40Z</time>
      </trkpt>
      <trkpt lat="45.99108" lon="6.68847">
        <ele>1991.5</ele>
        <time>2020-02-07T10:28:14Z</time>
      </trkpt>
      <trkpt lat="45.99103" lon="6.68862">
        <ele>1994.9004</ele>
        <time>2020-02-07T10:28:27Z</time>
      </trkpt>
      <trkpt lat="45.99097" lon="6.68901">
        <ele>1998</ele>
        <time>2020-02-07T10:28:57Z</time>
      </trkpt>
      <trkpt lat="45.99092" lon="6.68913">
        <ele>1999.9004</ele>
        <time>2020-02-07T10:29:10Z</time>
      </trkpt>
      <trkpt lat="45.99089" lon="6.6894">
        <ele>1998.1006</ele>
        <time>2020-02-07T10:29:35Z</time>
      </trkpt>
      <trkpt lat="45.99085" lon="6.68956">
        <ele>1998.1006</ele>
        <time>2020-02-07T10:29:50Z</time>
      </trkpt>
      <trkpt lat="45.99082" lon="6.68962">
        <ele>1999.7998</ele>
        <time>2020-02-07T10:29:56Z</time>
      </trkpt>
      <trkpt lat="45.9908" lon="6.6897">
        <ele>1999</ele>
        <time>2020-02-07T10:30:03Z</time>
      </trkpt>
      <trkpt lat="45.99077" lon="6.68977">
        <ele>1998.2998</ele>
        <time>2020-02-07T10:30:10Z</time>
      </trkpt>
      <trkpt lat="45.99071" lon="6.69006">
        <ele>1997.9004</ele>
        <time>2020-02-07T10:30:34Z</time>
      </trkpt>
      <trkpt lat="45.99064" lon="6.69029">
        <ele>1997.7998</ele>
        <time>2020-02-07T10:30:55Z</time>
      </trkpt>
      <trkpt lat="45.99062" lon="6.69043">
        <ele>1998.7002</ele>
        <time>2020-02-07T10:31:08Z</time>
      </trkpt>
      <trkpt lat="45.99053" lon="6.69082">
        <ele>1999.7002</ele>
        <time>2020-02-07T10:31:42Z</time>
      </trkpt>
      <trkpt lat="45.99054" lon="6.69086">
        <ele>1999.7002</ele>
        <time>2020-02-07T10:31:49Z</time>
      </trkpt>
      <trkpt lat="45.99028" lon="6.69172">
        <ele>2010.2002</ele>
        <time>2020-02-07T10:33:05Z</time>
      </trkpt>
      <trkpt lat="45.99026" lon="6.69202">
        <ele>2010.6006</ele>
        <time>2020-02-07T10:33:31Z</time>
      </trkpt>
      <trkpt lat="45.99023" lon="6.69216">
        <ele>2011.2998</ele>
        <time>2020-02-07T10:33:42Z</time>
      </trkpt>
      <trkpt lat="45.99023" lon="6.69234">
        <ele>2012.2998</ele>
        <time>2020-02-07T10:33:56Z</time>
      </trkpt>
      <trkpt lat="45.9902" lon="6.6925">
        <ele>2015.7998</ele>
        <time>2020-02-07T10:34:11Z</time>
      </trkpt>
      <trkpt lat="45.99019" lon="6.69252">
        <ele>2015.7998</ele>
        <time>2020-02-07T10:34:15Z</time>
      </trkpt>
      <trkpt lat="45.9902" lon="6.69253">
        <ele>2015.7998</ele>
        <time>2020-02-07T10:34:21Z</time>
      </trkpt>
      <trkpt lat="45.99016" lon="6.69263">
        <ele>2018.7002</ele>
        <time>2020-02-07T10:34:35Z</time>
      </trkpt>
      <trkpt lat="45.99012" lon="6.69267">
        <ele>2019.1006</ele>
        <time>2020-02-07T10:34:42Z</time>
      </trkpt>
      <trkpt lat="45.99007" lon="6.69277">
        <ele>2021.7002</ele>
        <time>2020-02-07T10:34:54Z</time>
      </trkpt>
      <trkpt lat="45.99003" lon="6.69281">
        <ele>2024</ele>
        <time>2020-02-07T10:35:00Z</time>
      </trkpt>
      <trkpt lat="45.99001" lon="6.69295">
        <ele>2024.2002</ele>
        <time>2020-02-07T10:35:16Z</time>
      </trkpt>
      <trkpt lat="45.98994" lon="6.69308">
        <ele>2026.4004</ele>
        <time>2020-02-07T10:35:34Z</time>
      </trkpt>
      <trkpt lat="45.98978" lon="6.69351">
        <ele>2032.7998</ele>
        <time>2020-02-07T10:36:12Z</time>
      </trkpt>
      <trkpt lat="45.98978" lon="6.69355">
        <ele>2032.7998</ele>
        <time>2020-02-07T10:36:14Z</time>
      </trkpt>
      <trkpt lat="45.98973" lon="6.69368">
        <ele>2035</ele>
        <time>2020-02-07T10:36:24Z</time>
      </trkpt>
      <trkpt lat="45.98968" lon="6.69388">
        <ele>2037.2002</ele>
        <time>2020-02-07T10:36:39Z</time>
      </trkpt>
      <trkpt lat="45.98972" lon="6.69393">
        <ele>2035</ele>
        <time>2020-02-07T10:37:11Z</time>
      </trkpt>
      <trkpt lat="45.98967" lon="6.6941">
        <ele>2036.9004</ele>
        <time>2020-02-07T10:37:30Z</time>
      </trkpt>
      <trkpt lat="45.98961" lon="6.69429">
        <ele>2038.2998</ele>
        <time>2020-02-07T10:37:48Z</time>
      </trkpt>
      <trkpt lat="45.98958" lon="6.69432">
        <ele>2038.2998</ele>
        <time>2020-02-07T10:37:52Z</time>
      </trkpt>
      <trkpt lat="45.98953" lon="6.69442">
        <ele>2040</ele>
        <time>2020-02-07T10:38:02Z</time>
      </trkpt>
      <trkpt lat="45.9894" lon="6.6949">
        <ele>2042</ele>
        <time>2020-02-07T10:38:41Z</time>
      </trkpt>
      <trkpt lat="45.98939" lon="6.69506">
        <ele>2040.9004</ele>
        <time>2020-02-07T10:38:57Z</time>
      </trkpt>
      <trkpt lat="45.98935" lon="6.6952">
        <ele>2041.7002</ele>
        <time>2020-02-07T10:39:11Z</time>
      </trkpt>
      <trkpt lat="45.98923" lon="6.69536">
        <ele>2043.2002</ele>
        <time>2020-02-07T10:39:30Z</time>
      </trkpt>
      <trkpt lat="45.98915" lon="6.6957">
        <ele>2044</ele>
        <time>2020-02-07T10:39:54Z</time>
      </trkpt>
      <trkpt lat="45.98909" lon="6.6958">
        <ele>2043.4004</ele>
        <time>2020-02-07T10:40:03Z</time>
      </trkpt>
      <trkpt lat="45.98904" lon="6.69582">
        <ele>2045.1006</ele>
        <time>2020-02-07T10:40:10Z</time>
      </trkpt>
      <trkpt lat="45.98898" lon="6.69581">
        <ele>2046.7002</ele>
        <time>2020-02-07T10:40:17Z</time>
      </trkpt>
      <trkpt lat="45.98891" lon="6.69583">
        <ele>2047.7002</ele>
        <time>2020-02-07T10:40:25Z</time>
      </trkpt>
      <trkpt lat="45.98885" lon="6.69581">
        <ele>2051.5</ele>
        <time>2020-02-07T10:40:34Z</time>
      </trkpt>
      <trkpt lat="45.9888" lon="6.69581">
        <ele>2051.5</ele>
        <time>2020-02-07T10:40:39Z</time>
      </trkpt>
      <trkpt lat="45.98871" lon="6.69584">
        <ele>2054.1006</ele>
        <time>2020-02-07T10:40:47Z</time>
      </trkpt>
      <trkpt lat="45.98869" lon="6.69587">
        <ele>2054.1006</ele>
        <time>2020-02-07T10:40:50Z</time>
      </trkpt>
      <trkpt lat="45.98859" lon="6.69593">
        <ele>2056.4004</ele>
        <time>2020-02-07T10:41:03Z</time>
      </trkpt>
      <trkpt lat="45.98853" lon="6.69614">
        <ele>2055.4004</ele>
        <time>2020-02-07T10:41:19Z</time>
      </trkpt>
      <trkpt lat="45.98853" lon="6.69617">
        <ele>2054.1006</ele>
        <time>2020-02-07T10:41:21Z</time>
      </trkpt>
      <trkpt lat="45.98839" lon="6.69658">
        <ele>2053.9004</ele>
        <time>2020-02-07T10:41:55Z</time>
      </trkpt>
      <trkpt lat="45.98834" lon="6.69707">
        <ele>2055.1006</ele>
        <time>2020-02-07T10:42:36Z</time>
      </trkpt>
      <trkpt lat="45.98834" lon="6.6972">
        <ele>2055.4004</ele>
        <time>2020-02-07T10:42:47Z</time>
      </trkpt>
      <trkpt lat="45.98829" lon="6.69744">
        <ele>2058.1006</ele>
        <time>2020-02-07T10:43:07Z</time>
      </trkpt>
      <trkpt lat="45.9883" lon="6.69763">
        <ele>2059.7002</ele>
        <time>2020-02-07T10:43:23Z</time>
      </trkpt>
      <trkpt lat="45.98824" lon="6.69796">
        <ele>2064</ele>
        <time>2020-02-07T10:43:51Z</time>
      </trkpt>
      <trkpt lat="45.98825" lon="6.6982">
        <ele>2066.2002</ele>
        <time>2020-02-07T10:44:07Z</time>
      </trkpt>
      <trkpt lat="45.98822" lon="6.69861">
        <ele>2070.6006</ele>
        <time>2020-02-07T10:44:39Z</time>
      </trkpt>
      <trkpt lat="45.98818" lon="6.69887">
        <ele>2075</ele>
        <time>2020-02-07T10:45:02Z</time>
      </trkpt>
      <trkpt lat="45.98815" lon="6.69888">
        <ele>2075</ele>
        <time>2020-02-07T10:45:16Z</time>
      </trkpt>
      <trkpt lat="45.98815" lon="6.69896">
        <ele>2075.6006</ele>
        <time>2020-02-07T10:45:23Z</time>
      </trkpt>
      <trkpt lat="45.98812" lon="6.69917">
        <ele>2079.5</ele>
        <time>2020-02-07T10:45:40Z</time>
      </trkpt>
      <trkpt lat="45.98814" lon="6.69936">
        <ele>2079</ele>
        <time>2020-02-07T10:46:18Z</time>
      </trkpt>
      <trkpt lat="45.98808" lon="6.69952">
        <ele>2082.4004</ele>
        <time>2020-02-07T10:46:30Z</time>
      </trkpt>
      <trkpt lat="45.98808" lon="6.69977">
        <ele>2083.7998</ele>
        <time>2020-02-07T10:46:48Z</time>
      </trkpt>
      <trkpt lat="45.98806" lon="6.69989">
        <ele>2087.5</ele>
        <time>2020-02-07T10:46:56Z</time>
      </trkpt>
      <trkpt lat="45.98808" lon="6.69992">
        <ele>2087.5</ele>
        <time>2020-02-07T10:46:59Z</time>
      </trkpt>
      <trkpt lat="45.98806" lon="6.70003">
        <ele>2088.4004</ele>
        <time>2020-02-07T10:47:07Z</time>
      </trkpt>
      <trkpt lat="45.98807" lon="6.70017">
        <ele>2090.2998</ele>
        <time>2020-02-07T10:47:18Z</time>
      </trkpt>
      <trkpt lat="45.98813" lon="6.70029">
        <ele>2090.5</ele>
        <time>2020-02-07T10:47:31Z</time>
      </trkpt>
      <trkpt lat="45.98812" lon="6.70034">
        <ele>2090.5</ele>
        <time>2020-02-07T10:47:38Z</time>
      </trkpt>
      <trkpt lat="45.98816" lon="6.7006">
        <ele>2090.6006</ele>
        <time>2020-02-07T10:48:00Z</time>
      </trkpt>
      <trkpt lat="45.98817" lon="6.70063">
        <ele>2091.2002</ele>
        <time>2020-02-07T10:48:03Z</time>
      </trkpt>
      <trkpt lat="45.98818" lon="6.70062">
        <ele>2090.6006</ele>
        <time>2020-02-07T10:48:04Z</time>
      </trkpt>
      <trkpt lat="45.98822" lon="6.70066">
        <ele>2088.6006</ele>
        <time>2020-02-07T10:48:09Z</time>
      </trkpt>
      <trkpt lat="45.98828" lon="6.70087">
        <ele>2087</ele>
        <time>2020-02-07T10:48:24Z</time>
      </trkpt>
      <trkpt lat="45.98826" lon="6.70099">
        <ele>2088.1006</ele>
        <time>2020-02-07T10:48:37Z</time>
      </trkpt>
      <trkpt lat="45.98827" lon="6.70099">
        <ele>2088.1006</ele>
        <time>2020-02-07T10:48:42Z</time>
      </trkpt>
      <trkpt lat="45.98823" lon="6.70119">
        <ele>2092.1006</ele>
        <time>2020-02-07T10:49:03Z</time>
      </trkpt>
      <trkpt lat="45.98824" lon="6.70138">
        <ele>2094</ele>
        <time>2020-02-07T10:49:19Z</time>
      </trkpt>
      <trkpt lat="45.9882" lon="6.70167">
        <ele>2099.4004</ele>
        <time>2020-02-07T10:49:44Z</time>
      </trkpt>
      <trkpt lat="45.98823" lon="6.70201">
        <ele>2104.4004</ele>
        <time>2020-02-07T10:50:14Z</time>
      </trkpt>
      <trkpt lat="45.98825" lon="6.70205">
        <ele>2104.4004</ele>
        <time>2020-02-07T10:50:19Z</time>
      </trkpt>
      <trkpt lat="45.98826" lon="6.70211">
        <ele>2103.2998</ele>
        <time>2020-02-07T10:50:25Z</time>
      </trkpt>
      <trkpt lat="45.98832" lon="6.70222">
        <ele>2102</ele>
        <time>2020-02-07T10:50:42Z</time>
      </trkpt>
      <trkpt lat="45.98836" lon="6.70239">
        <ele>2103.9004</ele>
        <time>2020-02-07T10:51:00Z</time>
      </trkpt>
      <trkpt lat="45.98838" lon="6.70235">
        <ele>2101.7002</ele>
        <time>2020-02-07T10:51:03Z</time>
      </trkpt>
      <trkpt lat="45.98835" lon="6.70235">
        <ele>2103</ele>
        <time>2020-02-07T10:51:09Z</time>
      </trkpt>
      <trkpt lat="45.98827" lon="6.70238">
        <ele>2106.2002</ele>
        <time>2020-02-07T10:51:26Z</time>
      </trkpt>
      <trkpt lat="45.98824" lon="6.70236">
        <ele>2108.5</ele>
        <time>2020-02-07T10:51:36Z</time>
      </trkpt>
      <trkpt lat="45.98821" lon="6.70236">
        <ele>2108.5</ele>
        <time>2020-02-07T10:51:42Z</time>
      </trkpt>
      <trkpt lat="45.98818" lon="6.70233">
        <ele>2109.9004</ele>
        <time>2020-02-07T10:51:53Z</time>
      </trkpt>
      <trkpt lat="45.98811" lon="6.70248">
        <ele>2113.7998</ele>
        <time>2020-02-07T10:52:27Z</time>
      </trkpt>
      <trkpt lat="45.98805" lon="6.70246">
        <ele>2116.1006</ele>
        <time>2020-02-07T10:52:37Z</time>
      </trkpt>
      <trkpt lat="45.98804" lon="6.70241">
        <ele>2115.5</ele>
        <time>2020-02-07T10:52:43Z</time>
      </trkpt>
      <trkpt lat="45.98801" lon="6.70237">
        <ele>2117.9004</ele>
        <time>2020-02-07T10:52:50Z</time>
      </trkpt>
      <trkpt lat="45.98799" lon="6.70237">
        <ele>2117.9004</ele>
        <time>2020-02-07T10:52:54Z</time>
      </trkpt>
      <trkpt lat="45.98798" lon="6.70242">
        <ele>2117.9004</ele>
        <time>2020-02-07T10:53:00Z</time>
      </trkpt>
      <trkpt lat="45.98792" lon="6.7025">
        <ele>2121</ele>
        <time>2020-02-07T10:53:11Z</time>
      </trkpt>
      <trkpt lat="45.98791" lon="6.70254">
        <ele>2121.2998</ele>
        <time>2020-02-07T10:53:16Z</time>
      </trkpt>
      <trkpt lat="45.98788" lon="6.70254">
        <ele>2123.9004</ele>
        <time>2020-02-07T10:53:23Z</time>
      </trkpt>
      <trkpt lat="45.98788" lon="6.70257">
        <ele>2123.9004</ele>
        <time>2020-02-07T10:53:25Z</time>
      </trkpt>
      <trkpt lat="45.98783" lon="6.70259">
        <ele>2126.5</ele>
        <time>2020-02-07T10:53:33Z</time>
      </trkpt>
      <trkpt lat="45.98777" lon="6.70272">
        <ele>2129.5</ele>
        <time>2020-02-07T10:53:46Z</time>
      </trkpt>
      <trkpt lat="45.98772" lon="6.70274">
        <ele>2129.5</ele>
        <time>2020-02-07T10:53:57Z</time>
      </trkpt>
      <trkpt lat="45.98769" lon="6.70281">
        <ele>2132.2998</ele>
        <time>2020-02-07T10:54:08Z</time>
      </trkpt>
      <trkpt lat="45.98763" lon="6.70287">
        <ele>2134.9004</ele>
        <time>2020-02-07T10:54:22Z</time>
      </trkpt>
      <trkpt lat="45.98763" lon="6.70292">
        <ele>2134.9004</ele>
        <time>2020-02-07T10:54:26Z</time>
      </trkpt>
      <trkpt lat="45.98759" lon="6.70298">
        <ele>2137.5</ele>
        <time>2020-02-07T10:54:32Z</time>
      </trkpt>
      <trkpt lat="45.98757" lon="6.70308">
        <ele>2137.1006</ele>
        <time>2020-02-07T10:54:41Z</time>
      </trkpt>
      <trkpt lat="45.98755" lon="6.70329">
        <ele>2136.2002</ele>
        <time>2020-02-07T10:55:02Z</time>
      </trkpt>
      <trkpt lat="45.98754" lon="6.70333">
        <ele>2138.6006</ele>
        <time>2020-02-07T10:55:06Z</time>
      </trkpt>
      <trkpt lat="45.98753" lon="6.70332">
        <ele>2138.6006</ele>
        <time>2020-02-07T10:55:19Z</time>
      </trkpt>
      <trkpt lat="45.98758" lon="6.70338">
        <ele>2135.5</ele>
        <time>2020-02-07T10:55:41Z</time>
      </trkpt>
      <trkpt lat="45.98755" lon="6.7034">
        <ele>2135.5</ele>
        <time>2020-02-07T10:55:51Z</time>
      </trkpt>
      <trkpt lat="45.98753" lon="6.7035">
        <ele>2137.7998</ele>
        <time>2020-02-07T10:56:11Z</time>
      </trkpt>
      <trkpt lat="45.98746" lon="6.70356">
        <ele>2140.2002</ele>
        <time>2020-02-07T10:56:16Z</time>
      </trkpt>
      <trkpt lat="45.98737" lon="6.70353">
        <ele>2143.7002</ele>
        <time>2020-02-07T10:56:33Z</time>
      </trkpt>
      <trkpt lat="45.98738" lon="6.70353">
        <ele>2143.7002</ele>
        <time>2020-02-07T10:56:34Z</time>
      </trkpt>
      <trkpt lat="45.98733" lon="6.70352">
        <ele>2147.1006</ele>
        <time>2020-02-07T10:56:43Z</time>
      </trkpt>
      <trkpt lat="45.98729" lon="6.70353">
        <ele>2150.7002</ele>
        <time>2020-02-07T10:56:52Z</time>
      </trkpt>
      <trkpt lat="45.98727" lon="6.70355">
        <ele>2149.9004</ele>
        <time>2020-02-07T10:56:55Z</time>
      </trkpt>
      <trkpt lat="45.98726" lon="6.70354">
        <ele>2150.7002</ele>
        <time>2020-02-07T10:56:59Z</time>
      </trkpt>
      <trkpt lat="45.98724" lon="6.70358">
        <ele>2153.5</ele>
        <time>2020-02-07T10:57:05Z</time>
      </trkpt>
      <trkpt lat="45.98722" lon="6.70356">
        <ele>2153.5</ele>
        <time>2020-02-07T10:57:27Z</time>
      </trkpt>
      <trkpt lat="45.98717" lon="6.70358">
        <ele>2157.1006</ele>
        <time>2020-02-07T10:57:36Z</time>
      </trkpt>
      <trkpt lat="45.98709" lon="6.70367">
        <ele>2159.5</ele>
        <time>2020-02-07T10:57:54Z</time>
      </trkpt>
      <trkpt lat="45.98701" lon="6.70369">
        <ele>2163</ele>
        <time>2020-02-07T10:58:08Z</time>
      </trkpt>
      <trkpt lat="45.98698" lon="6.70372">
        <ele>2166.7002</ele>
        <time>2020-02-07T10:58:13Z</time>
      </trkpt>
      <trkpt lat="45.98696" lon="6.70379">
        <ele>2165.2998</ele>
        <time>2020-02-07T10:58:20Z</time>
      </trkpt>
      <trkpt lat="45.98685" lon="6.70386">
        <ele>2171.4004</ele>
        <time>2020-02-07T10:58:31Z</time>
      </trkpt>
      <trkpt lat="45.98679" lon="6.70395">
        <ele>2173.4004</ele>
        <time>2020-02-07T10:58:42Z</time>
      </trkpt>
      <trkpt lat="45.98671" lon="6.70396">
        <ele>2177</ele>
        <time>2020-02-07T10:58:54Z</time>
      </trkpt>
      <trkpt lat="45.98669" lon="6.70399">
        <ele>2178.2998</ele>
        <time>2020-02-07T10:59:00Z</time>
      </trkpt>
      <trkpt lat="45.98666" lon="6.704">
        <ele>2178.2998</ele>
        <time>2020-02-07T10:59:05Z</time>
      </trkpt>
      <trkpt lat="45.98664" lon="6.70407">
        <ele>2179.2998</ele>
        <time>2020-02-07T10:59:10Z</time>
      </trkpt>
      <trkpt lat="45.98659" lon="6.70415">
        <ele>2179.2998</ele>
        <time>2020-02-07T10:59:20Z</time>
      </trkpt>
      <trkpt lat="45.98655" lon="6.70417">
        <ele>2180.2998</ele>
        <time>2020-02-07T10:59:29Z</time>
      </trkpt>
      <trkpt lat="45.98648" lon="6.70415">
        <ele>2185.5</ele>
        <time>2020-02-07T10:59:38Z</time>
      </trkpt>
      <trkpt lat="45.98646" lon="6.70422">
        <ele>2185.7998</ele>
        <time>2020-02-07T10:59:46Z</time>
      </trkpt>
      <trkpt lat="45.98643" lon="6.70424">
        <ele>2183.6006</ele>
        <time>2020-02-07T10:59:52Z</time>
      </trkpt>
      <trkpt lat="45.9864" lon="6.70424">
        <ele>2186.1006</ele>
        <time>2020-02-07T10:59:56Z</time>
      </trkpt>
      <trkpt lat="45.98633" lon="6.70429">
        <ele>2188.6006</ele>
        <time>2020-02-07T11:00:07Z</time>
      </trkpt>
      <trkpt lat="45.98629" lon="6.70429">
        <ele>2188.6006</ele>
        <time>2020-02-07T11:00:14Z</time>
      </trkpt>
      <trkpt lat="45.98629" lon="6.70431">
        <ele>2188.6006</ele>
        <time>2020-02-07T11:00:15Z</time>
      </trkpt>
      <trkpt lat="45.98626" lon="6.70432">
        <ele>2191</ele>
        <time>2020-02-07T11:00:19Z</time>
      </trkpt>
      <trkpt lat="45.98624" lon="6.70431">
        <ele>2191</ele>
        <time>2020-02-07T11:00:23Z</time>
      </trkpt>
      <trkpt lat="45.98622" lon="6.70433">
        <ele>2190.7998</ele>
        <time>2020-02-07T11:00:29Z</time>
      </trkpt>
      <trkpt lat="45.98619" lon="6.70429">
        <ele>2193.4004</ele>
        <time>2020-02-07T11:00:35Z</time>
      </trkpt>
      <trkpt lat="45.98617" lon="6.70433">
        <ele>2190.7998</ele>
        <time>2020-02-07T11:00:39Z</time>
      </trkpt>
      <trkpt lat="45.98613" lon="6.70433">
        <ele>2193</ele>
        <time>2020-02-07T11:00:47Z</time>
      </trkpt>
      <trkpt lat="45.98611" lon="6.70436">
        <ele>2195.2002</ele>
        <time>2020-02-07T11:00:52Z</time>
      </trkpt>
      <trkpt lat="45.98604" lon="6.70439">
        <ele>2197.5</ele>
        <time>2020-02-07T11:01:01Z</time>
      </trkpt>
      <trkpt lat="45.986" lon="6.70436">
        <ele>2197.5</ele>
        <time>2020-02-07T11:01:08Z</time>
      </trkpt>
      <trkpt lat="45.98596" lon="6.70446">
        <ele>2197.1006</ele>
        <time>2020-02-07T11:01:17Z</time>
      </trkpt>
      <trkpt lat="45.98593" lon="6.70446">
        <ele>2197.1006</ele>
        <time>2020-02-07T11:01:20Z</time>
      </trkpt>
      <trkpt lat="45.98588" lon="6.70453">
        <ele>2196.7002</ele>
        <time>2020-02-07T11:01:30Z</time>
      </trkpt>
      <trkpt lat="45.98586" lon="6.70471">
        <ele>2194.1006</ele>
        <time>2020-02-07T11:01:41Z</time>
      </trkpt>
      <trkpt lat="45.98583" lon="6.70478">
        <ele>2192.5</ele>
        <time>2020-02-07T11:01:46Z</time>
      </trkpt>
      <trkpt lat="45.98581" lon="6.70487">
        <ele>2191</ele>
        <time>2020-02-07T11:01:52Z</time>
      </trkpt>
      <trkpt lat="45.98575" lon="6.70501">
        <ele>2189.5</ele>
        <time>2020-02-07T11:02:06Z</time>
      </trkpt>
      <trkpt lat="45.98572" lon="6.70503">
        <ele>2190.4004</ele>
        <time>2020-02-07T11:02:14Z</time>
      </trkpt>
      <trkpt lat="45.98576" lon="6.70516">
        <ele>2188.5</ele>
        <time>2020-02-07T11:02:49Z</time>
      </trkpt>
      <trkpt lat="45.98576" lon="6.70519">
        <ele>2187.5</ele>
        <time>2020-02-07T11:02:50Z</time>
      </trkpt>
      <trkpt lat="45.98572" lon="6.70538">
        <ele>2186.7002</ele>
        <time>2020-02-07T11:03:02Z</time>
      </trkpt>
      <trkpt lat="45.98566" lon="6.70551">
        <ele>2187</ele>
        <time>2020-02-07T11:03:15Z</time>
      </trkpt>
      <trkpt lat="45.98567" lon="6.70553">
        <ele>2186.6006</ele>
        <time>2020-02-07T11:03:18Z</time>
      </trkpt>
      <trkpt lat="45.98571" lon="6.70554">
        <ele>2185.7002</ele>
        <time>2020-02-07T11:03:31Z</time>
      </trkpt>
      <trkpt lat="45.98575" lon="6.70551">
        <ele>2185.2998</ele>
        <time>2020-02-07T11:04:10Z</time>
      </trkpt>
      <trkpt lat="45.98573" lon="6.70553">
        <ele>2185.7002</ele>
        <time>2020-02-07T11:04:12Z</time>
      </trkpt>
      <trkpt lat="45.98573" lon="6.70552">
        <ele>2186.1006</ele>
        <time>2020-02-07T11:04:32Z</time>
      </trkpt>
      <trkpt lat="45.98561" lon="6.70566">
        <ele>2196.09375</ele>
      </trkpt>
      <trkpt lat="45.98539" lon="6.70613">
        <ele>2196.07421875</ele>
      </trkpt>
      <trkpt lat="45.98521" lon="6.70655">
        <ele>2198.359375</ele>
      </trkpt>
      <trkpt lat="45.98521" lon="6.70666">
        <ele>2198.44140625</ele>
      </trkpt>
      <trkpt lat="45.98512" lon="6.70684">
        <ele>2200.4609375</ele>
      </trkpt>
      <trkpt lat="45.98513" lon="6.70694">
        <ele>2201.02734375</ele>
      </trkpt>
      <trkpt lat="45.98509" lon="6.70713">
        <ele>2203.25</ele>
      </trkpt>
      <trkpt lat="45.98491" lon="6.70725">
        <ele>2207.60546875</ele>
      </trkpt>
      <trkpt lat="45.98482" lon="6.70723">
        <ele>2209.06640625</ele>
      </trkpt>
      <trkpt lat="45.98479" lon="6.7072">
        <ele>2209.36328125</ele>
      </trkpt>
      <trkpt lat="45.98459" lon="6.70717">
        <ele>2212.6015625</ele>
      </trkpt>
      <trkpt lat="45.98456" lon="6.7073">
        <ele>2214.765625</ele>
      </trkpt>
      <trkpt lat="45.98445" lon="6.70746">
        <ele>2219.2421875</ele>
      </trkpt>
      <trkpt lat="45.98436" lon="6.70765">
        <ele>2223.03515625</ele>
      </trkpt>
      <trkpt lat="45.98418" lon="6.70785">
        <ele>2227.84375</ele>
      </trkpt>
      <trkpt lat="45.98393" lon="6.70803">
        <ele>2233.59765625</ele>
      </trkpt>
      <trkpt lat="45.98389" lon="6.70813">
        <ele>2234.7421875</ele>
      </trkpt>
      <trkpt lat="45.98381" lon="6.70809">
        <ele>2236.34375</ele>
      </trkpt>
      <trkpt lat="45.98338" lon="6.70868">
        <ele>2247.921875</ele>
      </trkpt>
      <trkpt lat="45.98318" lon="6.70876">
        <ele>2255.19921875</ele>
      </trkpt>
      <trkpt lat="45.98313" lon="6.70874">
        <ele>2257.21875</ele>
      </trkpt>
      <trkpt lat="45.98311" lon="6.70867">
        <ele>2258.2734375</ele>
      </trkpt>
      <trkpt lat="45.98318" lon="6.70847">
        <ele>2256.61328125</ele>
      </trkpt>
      <trkpt lat="45.98296" lon="6.70797">
        <ele>2260.3125</ele>
      </trkpt>
      <trkpt lat="45.98294" lon="6.70792">
        <ele>2260.40625</ele>
      </trkpt>
      <trkpt lat="45.98281" lon="6.7079">
        <ele>2263.91015625</ele>
      </trkpt>
      <trkpt lat="45.98232" lon="6.70777">
        <ele>2276.1015625</ele>
      </trkpt>
      <trkpt lat="45.98214" lon="6.70786">
        <ele>2281.9453125</ele>
      </trkpt>
      <trkpt lat="45.98214" lon="6.70799">
        <ele>2283.5859375</ele>
      </trkpt>
      <trkpt lat="45.98203" lon="6.70819">
        <ele>2289.1171875</ele>
      </trkpt>
      <trkpt lat="45.98153" lon="6.70817">
        <ele>2302.4921875</ele>
      </trkpt>
      <trkpt lat="45.98135" lon="6.70821">
        <ele>2307.6484375</ele>
      </trkpt>
      <trkpt lat="45.98088" lon="6.70789">
        <ele>2324.13671875</ele>
      </trkpt>
      <trkpt lat="45.98053" lon="6.70809">
        <ele>2335.0546875</ele>
      </trkpt>
      <trkpt lat="45.98026" lon="6.70814">
        <ele>2342.9453125</ele>
      </trkpt>
      <trkpt lat="45.97994" lon="6.70841">
        <ele>2344.02734375</ele>
      </trkpt>
      <trkpt lat="45.97991" lon="6.70849">
        <ele>2345.66796875</ele>
      </trkpt>
      <trkpt lat="45.9798" lon="6.70845">
        <ele>2347.77734375</ele>
      </trkpt>
      <trkpt lat="45.97975" lon="6.70854">
        <ele>2349.50390625</ele>
      </trkpt>
      <trkpt lat="45.97954" lon="6.7087">
        <ele>2354.6875</ele>
      </trkpt>
      <trkpt lat="45.97947" lon="6.70884">
        <ele>2356.22265625</ele>
      </trkpt>
      <trkpt lat="45.97871" lon="6.70872">
        <ele>2366.44140625</ele>
      </trkpt>
      <trkpt lat="45.97858" lon="6.70884">
        <ele>2365.00390625</ele>
      </trkpt>
      <trkpt lat="45.97851" lon="6.70904">
        <ele>2360.79296875</ele>
      </trkpt>
      <trkpt lat="45.97846" lon="6.70905">
        <ele>2360.57421875</ele>
      </trkpt>
      <trkpt lat="45.97837" lon="6.70896">
        <ele>2362.9140625</ele>
      </trkpt>
      <trkpt lat="45.97824" lon="6.70902">
        <ele>2361.609375</ele>
      </trkpt>
      <trkpt lat="45.97819" lon="6.70909">
        <ele>2360.0546875</ele>
      </trkpt>
      <trkpt lat="45.97813" lon="6.70917">
        <ele>2357.9375</ele>
      </trkpt>
      <trkpt lat="45.97816" lon="6.70931">
        <ele>2354.66796875</ele>
      </trkpt>
      <trkpt lat="45.97821" lon="6.70935">
        <ele>2353.76171875</ele>
      </trkpt>
      <trkpt lat="45.97844" lon="6.7095">
        <ele>2351.35546875</ele>
      </trkpt>
      <trkpt lat="45.9785" lon="6.7096">
        <ele>2349.81640625</ele>
      </trkpt>
      <trkpt lat="45.97851" lon="6.7097">
        <ele>2348.2109375</ele>
      </trkpt>
      <trkpt lat="45.97846" lon="6.70977">
        <ele>2346.68359375</ele>
      </trkpt>
      <trkpt lat="45.97836" lon="6.70981">
        <ele>2345.31640625</ele>
      </trkpt>
      <trkpt lat="45.97832" lon="6.70985">
        <ele>2344.296875</ele>
      </trkpt>
      <trkpt lat="45.97834" lon="6.70994">
        <ele>2342.546875</ele>
      </trkpt>
      <trkpt lat="45.9784" lon="6.71008">
        <ele>2340.58203125</ele>
      </trkpt>
      <trkpt lat="45.97841" lon="6.71016">
        <ele>2340.49609375</ele>
      </trkpt>
      <trkpt lat="45.97835" lon="6.71024">
        <ele>2339.73828125</ele>
      </trkpt>
      <trkpt lat="45.97834" lon="6.71039">
        <ele>2339.234375</ele>
      </trkpt>
      <trkpt lat="45.97836" lon="6.71048">
        <ele>2339.26953125</ele>
      </trkpt>
      <trkpt lat="45.9784" lon="6.71055">
        <ele>2339.71875</ele>
      </trkpt>
      <trkpt lat="45.97819" lon="6.71093">
        <ele>2335.21875</ele>
      </trkpt>
      <trkpt lat="45.97811" lon="6.71104">
        <ele>2333.53125</ele>
      </trkpt>
      <trkpt lat="45.97794" lon="6.71138">
        <ele>2329.25390625</ele>
      </trkpt>
      <trkpt lat="45.97776" lon="6.71186">
        <ele>2323.54296875</ele>
      </trkpt>
      <trkpt lat="45.97774" lon="6.71193">
        <ele>2322.8203125</ele>
      </trkpt>
      <trkpt lat="45.97764" lon="6.71204">
        <ele>2320.078125</ele>
      </trkpt>
      <trkpt lat="45.97753" lon="6.71249">
        <ele>2316.33984375</ele>
      </trkpt>
      <trkpt lat="45.97754" lon="6.71285">
        <ele>2315.5078125</ele>
      </trkpt>
      <trkpt lat="45.97756" lon="6.71321">
        <ele>2314.578125</ele>
      </trkpt>
      <trkpt lat="45.97757" lon="6.7134">
        <ele>2314.0546875</ele>
      </trkpt>
      <trkpt lat="45.97757" lon="6.71355">
        <ele>2311.19921875</ele>
      </trkpt>
      <trkpt lat="45.97764" lon="6.71374">
        <ele>2309.55078125</ele>
      </trkpt>
      <trkpt lat="45.97775" lon="6.71391">
        <ele>2309.23046875</ele>
      </trkpt>
      <trkpt lat="45.97785" lon="6.71401">
        <ele>2310.12890625</ele>
      </trkpt>
      <trkpt lat="45.97792" lon="6.71416">
        <ele>2308.42578125</ele>
      </trkpt>
      <trkpt lat="45.97815" lon="6.71439">
        <ele>2310.02734375</ele>
      </trkpt>
      <trkpt lat="45.97823" lon="6.71453">
        <ele>2310</ele>
      </trkpt>
      <trkpt lat="45.97838" lon="6.71457">
        <ele>2314.4453125</ele>
      </trkpt>
      <trkpt lat="45.97866" lon="6.71452">
        <ele>2324.78125</ele>
      </trkpt>
      <trkpt lat="45.97872" lon="6.71461">
        <ele>2324.69140625</ele>
      </trkpt>
      <trkpt lat="45.97882" lon="6.71465">
        <ele>2325.578125</ele>
      </trkpt>
      <trkpt lat="45.97886" lon="6.71478">
        <ele>2325.73828125</ele>
      </trkpt>
      <trkpt lat="45.97884" lon="6.71488">
        <ele>2325.30859375</ele>
      </trkpt>
      <trkpt lat="45.97894" lon="6.71483">
        <ele>2327.06640625</ele>
      </trkpt>
      <trkpt lat="45.97894" lon="6.71469">
        <ele>2326.96484375</ele>
      </trkpt>
      <trkpt lat="45.97895" lon="6.71459">
        <ele>2326.96484375</ele>
      </trkpt>
      <trkpt lat="45.979" lon="6.71447">
        <ele>2327.18359375</ele>
      </trkpt>
      <trkpt lat="45.97966" lon="6.71402">
        <ele>2320.40234375</ele>
      </trkpt>
      <trkpt lat="45.98159" lon="6.71308">
        <ele>2267.453125</ele>
      </trkpt>
      <trkpt lat="45.98546" lon="6.70959">
        <ele>2222.296875</ele>
      </trkpt>
      <trkpt lat="45.98604" lon="6.70842">
        <ele>2199.17578125</ele>
      </trkpt>
      <trkpt lat="45.98562" lon="6.70569">
        <ele>2195.6875</ele>
      </trkpt>
      <trkpt lat="45.98587" lon="6.70561">
        <ele>2192.9609375</ele>
      </trkpt>
    </trkseg>
  </trk>
</gpx>